Time,TemperatureF,DewpointF,PressureIn,WindDirection,WindDirectionDegrees,WindSpeedMPH,WindSpeedGustMPH,Humidity,HourlyPrecipIn,Conditions,Clouds,dailyrainin,SoftwareType,DateUTC
2013-04-08 00:02:00,59.2,31.6,28.32,SSW,212,0.0,0.0,35,0.00,,---,0.00,VWS V14.01,2013-04-08 05:02:00,
2013-04-08 00:03:00,59.2,31.6,28.32,SSW,212,0.0,0.0,35,0.00,,---,0.00,VWS V14.01,2013-04-08 05:03:00,
2013-04-08 00:07:00,59.2,31.6,28.32,SSW,212,0.0,0.0,35,0.00,,---,0.00,VWS V14.01,2013-04-08 05:07:00,
2013-04-08 00:09:00,58.6,31.8,28.32,SSW,212,0.0,0.0,36,0.00,,---,0.00,VWS V14.01,2013-04-08 05:09:00,
2013-04-08 00:12:00,58.6,31.8,28.32,SSW,212,0.0,0.0,36,0.00,,---,0.00,VWS V14.01,2013-04-08 05:12:00,
2013-04-08 00:13:00,58.6,31.8,28.32,SSW,212,0.0,0.0,36,0.00,,---,0.00,VWS V14.01,2013-04-08 05:13:00,
2013-04-08 00:14:00,58.6,31.8,28.32,SSW,212,0.0,0.0,36,0.00,,---,0.00,VWS V14.01,2013-04-08 05:14:00,
2013-04-08 00:17:00,58.5,31.6,28.32,SSW,212,0.0,0.0,36,0.00,,---,0.00,VWS V14.01,2013-04-08 05:17:00,
2013-04-08 00:18:00,58.5,31.6,28.32,SSW,212,0.0,0.0,36,0.00,,---,0.00,VWS V14.01,2013-04-08 05:18:00,
2013-04-08 00:19:00,58.5,31.6,28.32,SSW,212,0.0,0.0,36,0.00,,---,0.00,VWS V14.01,2013-04-08 05:19:00,
2013-04-08 00:22:00,58.5,31.6,28.32,SSW,200,0.0,0.0,36,0.00,,---,0.00,VWS V14.01,2013-04-08 05:22:00,
2013-04-08 00:23:00,58.5,31.6,28.32,SSW,200,0.0,0.0,36,0.00,,---,0.00,VWS V14.01,2013-04-08 05:23:00,
2013-04-08 00:24:00,58.5,31.6,28.32,SSW,200,0.0,0.0,36,0.00,,---,0.00,VWS V14.01,2013-04-08 05:24:00,
2013-04-08 00:27:00,58.5,31.6,28.32,SSW,194,2.2,3.1,36,0.00,,---,0.00,VWS V14.01,2013-04-08 05:27:00,
2013-04-08 00:28:00,58.5,31.6,28.32,SSW,194,2.2,2.2,36,0.00,,---,0.00,VWS V14.01,2013-04-08 05:28:00,
2013-04-08 00:29:00,58.3,32.2,28.32,SSW,192,0.0,0.0,37,0.00,,---,0.00,VWS V14.01,2013-04-08 05:29:00,
2013-04-08 00:32:00,58.3,32.2,28.32,South,186,2.7,2.7,37,0.00,,---,0.00,VWS V14.01,2013-04-08 05:32:00,
2013-04-08 00:33:00,58.3,32.2,28.32,South,186,2.7,2.7,37,0.00,,---,0.00,VWS V14.01,2013-04-08 05:33:00,
2013-04-08 00:34:00,58.3,32.2,28.32,South,186,2.7,2.7,37,0.00,,---,0.00,VWS V14.01,2013-04-08 05:34:00,
2013-04-08 00:35:00,58.3,32.2,28.32,South,186,2.7,2.7,37,0.00,,---,0.00,VWS V14.01,2013-04-08 05:35:00,
2013-04-08 00:38:00,58.3,32.2,28.32,South,185,2.2,2.2,37,0.00,,---,0.00,VWS V14.01,2013-04-08 05:38:00,
2013-04-08 00:39:00,58.3,32.2,28.32,South,185,2.7,2.7,37,0.00,,---,0.00,VWS V14.01,2013-04-08 05:39:00,
2013-04-08 00:40:00,58.3,32.2,28.32,South,185,2.7,2.7,37,0.00,,---,0.00,VWS V14.01,2013-04-08 05:40:00,
2013-04-08 00:43:00,58.3,32.2,28.29,South,185,0.0,0.0,37,0.00,,---,0.00,VWS V14.01,2013-04-08 05:43:00,
2013-04-08 00:44:00,58.3,32.2,28.29,South,185,0.0,0.0,37,0.00,,---,0.00,VWS V14.01,2013-04-08 05:44:00,
2013-04-08 00:45:00,58.3,32.2,28.29,South,185,0.0,0.0,37,0.00,,---,0.00,VWS V14.01,2013-04-08 05:45:00,
2013-04-08 00:48:00,58.3,32.2,28.29,South,185,0.0,0.0,37,0.00,,---,0.00,VWS V14.01,2013-04-08 05:48:00,
2013-04-08 00:49:00,58.3,32.2,28.29,South,185,0.0,0.0,37,0.00,,---,0.00,VWS V14.01,2013-04-08 05:49:00,
2013-04-08 00:50:00,58.3,32.2,28.29,South,185,0.0,0.0,37,0.00,,---,0.00,VWS V14.01,2013-04-08 05:50:00,
2013-04-08 00:53:00,58.6,32.5,28.29,South,185,0.0,2.2,37,0.00,,---,0.00,VWS V14.01,2013-04-08 05:53:00,
2013-04-08 00:54:00,58.6,32.5,28.29,South,185,0.0,0.0,37,0.00,,---,0.00,VWS V14.01,2013-04-08 05:54:00,
2013-04-08 00:55:00,58.6,32.5,28.29,South,185,0.0,0.0,37,0.00,,---,0.00,VWS V14.01,2013-04-08 05:55:00,
2013-04-08 00:58:00,58.6,32.5,28.29,South,185,0.0,2.7,37,0.00,,---,0.00,VWS V14.01,2013-04-08 05:58:00,
2013-04-08 01:00:00,58.6,32.5,28.29,South,185,0.0,0.0,37,0.00,,---,0.00,VWS V14.01,2013-04-08 06:00:00,
2013-04-08 01:03:00,58.6,32.5,28.29,South,176,3.6,3.6,37,0.00,,---,0.00,VWS V14.01,2013-04-08 06:03:00,
2013-04-08 01:05:00,58.6,32.5,28.29,South,173,4.0,4.0,37,0.00,,---,0.00,VWS V14.01,2013-04-08 06:05:00,
2013-04-08 01:06:00,58.6,32.5,28.29,South,176,3.1,4.0,37,0.00,,---,0.00,VWS V14.01,2013-04-08 06:06:00,
2013-04-08 01:08:00,58.6,32.5,28.29,SSE,147,4.5,4.5,37,0.00,,---,0.00,VWS V14.01,2013-04-08 06:08:00,
2013-04-08 01:10:00,58.6,32.5,28.29,SSE,168,4.0,4.0,37,0.00,,---,0.00,VWS V14.01,2013-04-08 06:10:00,
2013-04-08 01:11:00,58.6,32.5,28.29,SSE,168,4.0,4.0,37,0.00,,---,0.00,VWS V14.01,2013-04-08 06:11:00,
2013-04-08 01:13:00,58.6,32.5,28.29,South,175,4.0,4.0,37,0.00,,---,0.00,VWS V14.01,2013-04-08 06:13:00,
2013-04-08 01:15:00,59.2,32.3,28.29,SSW,204,0.0,0.0,36,0.00,,---,0.00,VWS V14.01,2013-04-08 06:15:00,
2013-04-08 01:16:00,59.2,32.3,28.29,SSW,204,0.0,0.0,36,0.00,,---,0.00,VWS V14.01,2013-04-08 06:16:00,
2013-04-08 01:20:00,59.4,32.4,28.29,South,182,3.1,3.1,36,0.00,,---,0.00,VWS V14.01,2013-04-08 06:20:00,
2013-04-08 01:21:00,59.4,32.4,28.29,South,182,3.1,3.1,36,0.00,,---,0.00,VWS V14.01,2013-04-08 06:21:00,
2013-04-08 01:25:00,59.4,32.4,28.29,SSW,202,0.0,0.0,36,0.00,,---,0.00,VWS V14.01,2013-04-08 06:25:00,
2013-04-08 01:26:00,59.4,32.4,28.29,SSW,202,0.0,0.0,36,0.00,,---,0.00,VWS V14.01,2013-04-08 06:26:00,
2013-04-08 01:30:00,59.4,32.4,28.29,SSW,202,0.0,0.0,36,0.00,,---,0.00,VWS V14.01,2013-04-08 06:30:00,
2013-04-08 01:32:00,59.4,32.4,28.32,SSW,202,0.0,0.0,36,0.00,,---,0.00,VWS V14.01,2013-04-08 06:32:00,
2013-04-08 01:35:00,59.4,32.4,28.32,SSW,202,0.0,0.0,36,0.00,,---,0.00,VWS V14.01,2013-04-08 06:35:00,
2013-04-08 01:36:00,59.4,32.4,28.32,SSW,202,0.0,0.0,36,0.00,,---,0.00,VWS V14.01,2013-04-08 06:36:00,
2013-04-08 01:37:00,59.4,32.4,28.32,SSW,202,0.0,0.0,36,0.00,,---,0.00,VWS V14.01,2013-04-08 06:37:00,
2013-04-08 01:40:00,59.4,32.4,28.32,SSW,202,0.0,0.0,36,0.00,,---,0.00,VWS V14.01,2013-04-08 06:40:00,
2013-04-08 01:41:00,59.4,32.4,28.32,SSW,202,0.0,0.0,36,0.00,,---,0.00,VWS V14.01,2013-04-08 06:41:00,
2013-04-08 01:42:00,59.0,32.1,28.32,SSW,202,0.0,0.0,36,0.00,,---,0.00,VWS V14.01,2013-04-08 06:42:00,
2013-04-08 01:46:00,59.0,32.1,28.32,SSW,202,0.0,0.0,36,0.00,,---,0.00,VWS V14.01,2013-04-08 06:46:00,
2013-04-08 01:47:00,59.0,32.1,28.32,SSW,202,0.0,0.0,36,0.00,,---,0.00,VWS V14.01,2013-04-08 06:47:00,
2013-04-08 01:51:00,59.0,32.1,28.32,SSW,202,0.0,0.0,36,0.00,,---,0.00,VWS V14.01,2013-04-08 06:51:00,
2013-04-08 01:52:00,59.0,32.1,28.32,SSW,202,0.0,0.0,36,0.00,,---,0.00,VWS V14.01,2013-04-08 06:52:00,
2013-04-08 01:57:00,58.5,32.3,28.32,SSW,202,0.0,0.0,37,0.00,,---,0.00,VWS V14.01,2013-04-08 06:57:00,
2013-04-08 02:02:00,58.5,32.3,28.32,SSW,202,0.0,0.0,37,0.00,,---,0.00,VWS V14.01,2013-04-08 07:02:00,
2013-04-08 02:07:00,57.9,31.8,28.32,SSW,202,0.0,0.0,37,0.00,,---,0.00,VWS V14.01,2013-04-08 07:07:00,
2013-04-08 02:12:00,57.7,31.7,28.32,SSW,202,0.0,0.0,37,0.00,,---,0.00,VWS V14.01,2013-04-08 07:12:00,
2013-04-08 02:17:00,57.7,31.7,28.29,SSW,202,0.0,0.0,37,0.00,,---,0.00,VWS V14.01,2013-04-08 07:17:00,
2013-04-08 02:18:00,57.7,31.7,28.29,SSW,202,0.0,0.0,37,0.00,,---,0.00,VWS V14.01,2013-04-08 07:18:00,
2013-04-08 02:22:00,57.2,31.8,28.29,SSW,202,0.0,0.0,38,0.00,,---,0.00,VWS V14.01,2013-04-08 07:22:00,
2013-04-08 02:23:00,57.2,31.8,28.29,SSW,202,0.0,0.0,38,0.00,,---,0.00,VWS V14.01,2013-04-08 07:23:00,
2013-04-08 02:27:00,57.0,32.3,28.29,SSW,202,0.0,0.0,39,0.00,,---,0.00,VWS V14.01,2013-04-08 07:27:00,
2013-04-08 02:28:00,57.0,32.3,28.29,SSW,202,0.0,0.0,39,0.00,,---,0.00,VWS V14.01,2013-04-08 07:28:00,
2013-04-08 02:32:00,56.8,32.8,28.29,SSW,202,0.0,0.0,40,0.00,,---,0.00,VWS V14.01,2013-04-08 07:32:00,
2013-04-08 02:33:00,56.8,32.8,28.29,SSW,201,0.0,0.0,40,0.00,,---,0.00,VWS V14.01,2013-04-08 07:33:00,
2013-04-08 02:37:00,56.8,33.4,28.29,SSW,202,0.0,0.0,41,0.00,,---,0.00,VWS V14.01,2013-04-08 07:37:00,
2013-04-08 02:38:00,56.8,33.4,28.29,SSW,202,0.0,0.0,41,0.00,,---,0.00,VWS V14.01,2013-04-08 07:38:00,
2013-04-08 02:42:00,56.8,33.4,28.29,SSW,202,0.0,0.0,41,0.00,,---,0.00,VWS V14.01,2013-04-08 07:42:00,
2013-04-08 02:43:00,56.8,33.4,28.29,SSW,202,0.0,0.0,41,0.00,,---,0.00,VWS V14.01,2013-04-08 07:43:00,
2013-04-08 02:47:00,56.7,33.2,28.29,SSW,202,0.0,0.0,41,0.00,,---,0.00,VWS V14.01,2013-04-08 07:47:00,
2013-04-08 02:48:00,56.7,33.2,28.29,SSW,202,0.0,0.0,41,0.00,,---,0.00,VWS V14.01,2013-04-08 07:48:00,
2013-04-08 02:49:00,56.7,33.2,28.29,SSW,202,0.0,0.0,41,0.00,,---,0.00,VWS V14.01,2013-04-08 07:49:00,
2013-04-08 02:52:00,56.3,33.5,28.29,SSW,202,0.0,0.0,42,0.00,,---,0.00,VWS V14.01,2013-04-08 07:52:00,
2013-04-08 02:54:00,56.3,33.5,28.29,SSW,202,0.0,0.0,42,0.00,,---,0.00,VWS V14.01,2013-04-08 07:54:00,
2013-04-08 02:58:00,56.1,33.4,28.29,SSW,202,0.0,0.0,42,0.00,,---,0.00,VWS V14.01,2013-04-08 07:58:00,
2013-04-08 02:59:00,56.1,33.4,28.29,SSW,202,0.0,0.0,42,0.00,,---,0.00,VWS V14.01,2013-04-08 07:59:00,
2013-04-08 03:03:00,55.8,34.2,28.29,SSW,202,0.0,0.0,44,0.00,,---,0.00,VWS V14.01,2013-04-08 08:03:00,
2013-04-08 03:04:00,55.8,34.2,28.29,SSW,202,0.0,0.0,44,0.00,,---,0.00,VWS V14.01,2013-04-08 08:04:00,
2013-04-08 03:05:00,55.8,34.2,28.29,SSW,202,0.0,0.0,44,0.00,,---,0.00,VWS V14.01,2013-04-08 08:05:00,
2013-04-08 03:09:00,55.6,34.0,28.29,SSW,202,0.0,0.0,44,0.00,,---,0.00,VWS V14.01,2013-04-08 08:09:00,
2013-04-08 03:10:00,55.6,34.0,28.29,SSW,202,0.0,0.0,44,0.00,,---,0.00,VWS V14.01,2013-04-08 08:10:00,
2013-04-08 03:14:00,55.4,34.4,28.29,SSW,202,0.0,0.0,45,0.00,,---,0.00,VWS V14.01,2013-04-08 08:14:00,
2013-04-08 03:15:00,55.4,34.4,28.29,SSW,202,0.0,0.0,45,0.00,,---,0.00,VWS V14.01,2013-04-08 08:15:00,
2013-04-08 03:19:00,55.4,34.4,28.29,SSW,202,0.0,0.0,45,0.00,,---,0.00,VWS V14.01,2013-04-08 08:19:00,
2013-04-08 03:20:00,55.4,34.4,28.29,SSW,202,0.0,0.0,45,0.00,,---,0.00,VWS V14.01,2013-04-08 08:20:00,
2013-04-08 03:24:00,55.4,34.4,28.29,SSW,202,0.0,0.0,45,0.00,,---,0.00,VWS V14.01,2013-04-08 08:24:00,
2013-04-08 03:25:00,55.4,34.4,28.29,SSW,202,0.0,0.0,45,0.00,,---,0.00,VWS V14.01,2013-04-08 08:25:00,
2013-04-08 03:30:00,55.4,34.4,28.26,SSW,202,0.0,0.0,45,0.00,,---,0.00,VWS V14.01,2013-04-08 08:30:00,
2013-04-08 03:31:00,55.2,34.3,28.26,SSW,202,0.0,0.0,45,0.00,,---,0.00,VWS V14.01,2013-04-08 08:31:00,
2013-04-08 03:35:00,55.2,34.8,28.26,SSW,202,0.0,0.0,46,0.00,,---,0.00,VWS V14.01,2013-04-08 08:35:00,
2013-04-08 03:36:00,55.2,34.8,28.26,SSW,202,0.0,0.0,46,0.00,,---,0.00,VWS V14.01,2013-04-08 08:36:00,
2013-04-08 03:40:00,55.2,34.8,28.26,SSW,202,0.0,0.0,46,0.00,,---,0.00,VWS V14.01,2013-04-08 08:40:00,
2013-04-08 03:41:00,55.4,34.4,28.26,SSW,202,0.0,0.0,45,0.00,,---,0.00,VWS V14.01,2013-04-08 08:41:00,
2013-04-08 03:45:00,55.2,34.8,28.26,SSW,202,0.0,0.0,46,0.00,,---,0.00,VWS V14.01,2013-04-08 08:45:00,
2013-04-08 03:46:00,55.2,34.8,28.26,SSW,202,0.0,0.0,46,0.00,,---,0.00,VWS V14.01,2013-04-08 08:46:00,
2013-04-08 03:47:00,55.2,34.8,28.26,SSW,202,0.0,0.0,46,0.00,,---,0.00,VWS V14.01,2013-04-08 08:47:00,
2013-04-08 03:50:00,55.2,34.8,28.29,SSW,202,0.0,0.0,46,0.00,,---,0.00,VWS V14.01,2013-04-08 08:50:00,
2013-04-08 03:51:00,55.2,34.8,28.29,SSW,202,0.0,0.0,46,0.00,,---,0.00,VWS V14.01,2013-04-08 08:51:00,
2013-04-08 03:52:00,55.2,34.8,28.29,SSW,202,0.0,0.0,46,0.00,,---,0.00,VWS V14.01,2013-04-08 08:52:00,
2013-04-08 03:55:00,55.2,34.8,28.29,SSW,202,0.0,0.0,46,0.00,,---,0.00,VWS V14.01,2013-04-08 08:55:00,
2013-04-08 03:56:00,55.2,34.8,28.29,SSW,202,0.0,0.0,46,0.00,,---,0.00,VWS V14.01,2013-04-08 08:56:00,
2013-04-08 03:57:00,55.2,34.8,28.29,SSW,202,0.0,0.0,46,0.00,,---,0.00,VWS V14.01,2013-04-08 08:57:00,
2013-04-08 04:00:00,55.2,34.8,28.29,SSW,202,0.0,0.0,46,0.00,,---,0.00,VWS V14.01,2013-04-08 09:00:00,
2013-04-08 04:01:00,55.2,34.8,28.29,SSW,202,0.0,0.0,46,0.00,,---,0.00,VWS V14.01,2013-04-08 09:01:00,
2013-04-08 04:02:00,55.2,34.8,28.29,SSW,202,0.0,0.0,46,0.00,,---,0.00,VWS V14.01,2013-04-08 09:02:00,
2013-04-08 04:05:00,55.2,34.8,28.29,SSW,202,0.0,0.0,46,0.00,,---,0.00,VWS V14.01,2013-04-08 09:05:00,
2013-04-08 04:07:00,55.2,34.8,28.29,SSW,202,0.0,0.0,46,0.00,,---,0.00,VWS V14.01,2013-04-08 09:07:00,
2013-04-08 04:12:00,55.2,35.4,28.29,SSW,202,2.7,2.7,47,0.00,,---,0.00,VWS V14.01,2013-04-08 09:12:00,
2013-04-08 04:17:00,55.4,35.5,28.29,SSW,202,2.2,2.2,47,0.00,,---,0.00,VWS V14.01,2013-04-08 09:17:00,
2013-04-08 04:22:00,55.4,36.1,28.29,South,175,3.1,3.1,48,0.00,,---,0.00,VWS V14.01,2013-04-08 09:22:00,
2013-04-08 04:27:00,55.6,36.2,28.32,South,174,2.7,2.7,48,0.00,,---,0.00,VWS V14.01,2013-04-08 09:27:00,
2013-04-08 04:32:00,55.6,36.2,28.32,South,180,0.0,0.0,48,0.00,,---,0.00,VWS V14.01,2013-04-08 09:32:00,
2013-04-08 04:37:00,55.9,36.5,28.32,South,180,2.2,3.1,48,0.00,,---,0.00,VWS V14.01,2013-04-08 09:37:00,
2013-04-08 04:38:00,55.9,36.5,28.32,South,180,2.2,2.2,48,0.00,,---,0.00,VWS V14.01,2013-04-08 09:38:00,
2013-04-08 04:42:00,55.9,36.5,28.32,South,180,2.7,2.7,48,0.00,,---,0.00,VWS V14.01,2013-04-08 09:42:00,
2013-04-08 04:43:00,55.9,36.5,28.32,South,180,2.2,2.7,48,0.00,,---,0.00,VWS V14.01,2013-04-08 09:43:00,
2013-04-08 04:47:00,56.1,36.2,28.32,South,181,2.7,2.7,47,0.00,,---,0.00,VWS V14.01,2013-04-08 09:47:00,
2013-04-08 04:48:00,56.1,36.2,28.32,South,181,0.0,2.7,47,0.00,,---,0.00,VWS V14.01,2013-04-08 09:48:00,
2013-04-08 04:52:00,56.3,36.3,28.32,South,181,0.0,2.7,47,0.00,,---,0.00,VWS V14.01,2013-04-08 09:52:00,
2013-04-08 04:53:00,56.3,36.3,28.32,South,181,0.0,0.0,47,0.00,,---,0.00,VWS V14.01,2013-04-08 09:53:00,
2013-04-08 04:58:00,56.3,36.3,28.29,South,181,0.0,0.0,47,0.00,,---,0.00,VWS V14.01,2013-04-08 09:58:00,
2013-04-08 04:59:00,56.5,36.5,28.29,South,181,0.0,0.0,47,0.00,,---,0.00,VWS V14.01,2013-04-08 09:59:00,
2013-04-08 05:03:00,56.5,36.0,28.29,South,181,0.0,0.0,46,0.00,,---,0.00,VWS V14.01,2013-04-08 10:03:00,
2013-04-08 05:04:00,56.5,36.0,28.29,South,181,0.0,0.0,46,0.00,,---,0.00,VWS V14.01,2013-04-08 10:04:00,
2013-04-08 05:05:00,56.5,36.0,28.29,South,181,0.0,0.0,46,0.00,,---,0.00,VWS V14.01,2013-04-08 10:05:00,
2013-04-08 05:08:00,56.3,35.8,28.29,South,181,0.0,0.0,46,0.00,,---,0.00,VWS V14.01,2013-04-08 10:08:00,
2013-04-08 05:09:00,56.3,35.8,28.29,South,181,0.0,0.0,46,0.00,,---,0.00,VWS V14.01,2013-04-08 10:09:00,
2013-04-08 05:10:00,56.3,35.8,28.29,South,181,0.0,0.0,46,0.00,,---,0.00,VWS V14.01,2013-04-08 10:10:00,
2013-04-08 05:14:00,56.1,35.6,28.32,South,181,0.0,0.0,46,0.00,,---,0.00,VWS V14.01,2013-04-08 10:14:00,
2013-04-08 05:15:00,56.1,35.6,28.32,South,181,0.0,0.0,46,0.00,,---,0.00,VWS V14.01,2013-04-08 10:15:00,
2013-04-08 05:19:00,56.1,35.6,28.32,South,181,0.0,0.0,46,0.00,,---,0.00,VWS V14.01,2013-04-08 10:19:00,
2013-04-08 05:20:00,56.1,35.6,28.32,South,181,0.0,0.0,46,0.00,,---,0.00,VWS V14.01,2013-04-08 10:20:00,
2013-04-08 05:21:00,56.1,35.6,28.32,South,181,0.0,0.0,46,0.00,,---,0.00,VWS V14.01,2013-04-08 10:21:00,
2013-04-08 05:24:00,56.1,35.6,28.29,South,181,0.0,0.0,46,0.00,,---,0.00,VWS V14.01,2013-04-08 10:24:00,
2013-04-08 05:25:00,56.1,35.6,28.29,South,181,0.0,0.0,46,0.00,,---,0.00,VWS V14.01,2013-04-08 10:25:00,
2013-04-08 05:26:00,56.1,35.6,28.29,South,181,0.0,0.0,46,0.00,,---,0.00,VWS V14.01,2013-04-08 10:26:00,
2013-04-08 05:29:00,56.1,35.6,28.29,South,181,0.0,0.0,46,0.00,,---,0.00,VWS V14.01,2013-04-08 10:29:00,
2013-04-08 05:30:00,56.1,35.6,28.29,South,181,0.0,0.0,46,0.00,,---,0.00,VWS V14.01,2013-04-08 10:30:00,
2013-04-08 05:31:00,56.1,35.6,28.29,South,181,0.0,0.0,46,0.00,,---,0.00,VWS V14.01,2013-04-08 10:31:00,
2013-04-08 05:35:00,56.1,35.6,28.29,South,181,0.0,0.0,46,0.00,,---,0.00,VWS V14.01,2013-04-08 10:35:00,
2013-04-08 05:36:00,56.1,35.6,28.29,South,181,0.0,0.0,46,0.00,,---,0.00,VWS V14.01,2013-04-08 10:36:00,
2013-04-08 05:40:00,56.1,35.6,28.29,South,181,0.0,0.0,46,0.00,,---,0.00,VWS V14.01,2013-04-08 10:40:00,
2013-04-08 05:41:00,56.1,35.6,28.29,South,181,0.0,0.0,46,0.00,,---,0.00,VWS V14.01,2013-04-08 10:41:00,
2013-04-08 05:42:00,56.1,35.6,28.29,South,181,0.0,0.0,46,0.00,,---,0.00,VWS V14.01,2013-04-08 10:42:00,
2013-04-08 05:45:00,56.1,35.6,28.29,South,181,0.0,0.0,46,0.00,,---,0.00,VWS V14.01,2013-04-08 10:45:00,
2013-04-08 05:46:00,56.1,35.6,28.32,South,181,0.0,0.0,46,0.00,,---,0.00,VWS V14.01,2013-04-08 10:46:00,
2013-04-08 05:47:00,56.1,35.6,28.32,South,181,0.0,0.0,46,0.00,,---,0.00,VWS V14.01,2013-04-08 10:47:00,
2013-04-08 05:50:00,55.9,35.5,28.32,South,181,0.0,0.0,46,0.00,,---,0.00,VWS V14.01,2013-04-08 10:50:00,
2013-04-08 05:51:00,55.9,35.5,28.32,South,181,0.0,0.0,46,0.00,,---,0.00,VWS V14.01,2013-04-08 10:51:00,
2013-04-08 05:52:00,55.9,36.0,28.32,South,181,0.0,0.0,47,0.00,,---,0.00,VWS V14.01,2013-04-08 10:52:00,
2013-04-08 05:55:00,55.9,36.0,28.32,South,181,0.0,0.0,47,0.00,,---,0.00,VWS V14.01,2013-04-08 10:55:00,
2013-04-08 05:56:00,55.9,36.0,28.32,South,181,0.0,0.0,47,0.00,,---,0.00,VWS V14.01,2013-04-08 10:56:00,
2013-04-08 05:57:00,55.9,36.0,28.32,South,181,0.0,0.0,47,0.00,,---,0.00,VWS V14.01,2013-04-08 10:57:00,
2013-04-08 06:00:00,55.9,36.0,28.29,South,181,0.0,0.0,47,0.00,,---,0.00,VWS V14.01,2013-04-08 11:00:00,
2013-04-08 06:01:00,55.9,36.0,28.29,South,181,0.0,0.0,47,0.00,,---,0.00,VWS V14.01,2013-04-08 11:01:00,
2013-04-08 06:02:00,55.9,36.0,28.29,South,181,0.0,0.0,47,0.00,,---,0.00,VWS V14.01,2013-04-08 11:02:00,
2013-04-08 06:05:00,55.9,36.5,28.29,South,181,0.0,0.0,48,0.00,,---,0.00,VWS V14.01,2013-04-08 11:05:00,
2013-04-08 06:06:00,55.9,36.5,28.29,South,181,0.0,0.0,48,0.00,,---,0.00,VWS V14.01,2013-04-08 11:06:00,
2013-04-08 06:07:00,55.9,36.5,28.29,South,181,0.0,0.0,48,0.00,,---,0.00,VWS V14.01,2013-04-08 11:07:00,
2013-04-08 06:11:00,56.1,36.7,28.29,South,181,0.0,0.0,48,0.00,,---,0.00,VWS V14.01,2013-04-08 11:11:00,
2013-04-08 06:12:00,56.1,36.7,28.29,South,181,0.0,0.0,48,0.00,,---,0.00,VWS V14.01,2013-04-08 11:12:00,
2013-04-08 06:13:00,56.1,36.7,28.29,South,181,0.0,0.0,48,0.00,,---,0.00,VWS V14.01,2013-04-08 11:13:00,
2013-04-08 06:16:00,56.1,36.7,28.29,South,181,0.0,0.0,48,0.00,,---,0.00,VWS V14.01,2013-04-08 11:16:00,
2013-04-08 06:17:00,56.1,36.7,28.32,South,181,0.0,0.0,48,0.00,,---,0.00,VWS V14.01,2013-04-08 11:17:00,
2013-04-08 06:18:00,56.1,36.7,28.32,South,181,0.0,0.0,48,0.00,,---,0.00,VWS V14.01,2013-04-08 11:18:00,
2013-04-08 06:21:00,56.1,36.7,28.32,South,181,0.0,0.0,48,0.00,,---,0.00,VWS V14.01,2013-04-08 11:21:00,
2013-04-08 06:22:00,56.1,36.7,28.32,South,181,0.0,0.0,48,0.00,,---,0.00,VWS V14.01,2013-04-08 11:22:00,
2013-04-08 06:23:00,56.1,36.7,28.32,South,181,0.0,0.0,48,0.00,,---,0.00,VWS V14.01,2013-04-08 11:23:00,
2013-04-08 06:26:00,55.9,36.5,28.32,South,181,0.0,0.0,48,0.00,,---,0.00,VWS V14.01,2013-04-08 11:26:00,
2013-04-08 06:27:00,55.9,36.5,28.32,South,181,0.0,0.0,48,0.00,,---,0.00,VWS V14.01,2013-04-08 11:27:00,
2013-04-08 06:28:00,55.9,36.5,28.32,South,181,0.0,0.0,48,0.00,,---,0.00,VWS V14.01,2013-04-08 11:28:00,
2013-04-08 06:32:00,55.8,36.4,28.32,South,181,0.0,0.0,48,0.00,,---,0.00,VWS V14.01,2013-04-08 11:32:00,
2013-04-08 06:33:00,55.8,36.4,28.32,South,181,0.0,0.0,48,0.00,,---,0.00,VWS V14.01,2013-04-08 11:33:00,
2013-04-08 06:37:00,55.4,36.6,28.32,South,181,0.0,0.0,49,0.00,,---,0.00,VWS V14.01,2013-04-08 11:37:00,
2013-04-08 06:38:00,55.4,36.6,28.32,South,181,0.0,0.0,49,0.00,,---,0.00,VWS V14.01,2013-04-08 11:38:00,
2013-04-08 06:42:00,55.4,36.6,28.35,South,181,0.0,0.0,49,0.00,,---,0.00,VWS V14.01,2013-04-08 11:42:00,
2013-04-08 06:43:00,55.4,36.6,28.35,South,181,0.0,0.0,49,0.00,,---,0.00,VWS V14.01,2013-04-08 11:43:00,
2013-04-08 06:47:00,55.2,36.9,28.35,South,181,0.0,0.0,50,0.00,,---,0.00,VWS V14.01,2013-04-08 11:47:00,
2013-04-08 06:48:00,55.2,36.9,28.35,South,181,0.0,0.0,50,0.00,,---,0.00,VWS V14.01,2013-04-08 11:48:00,
2013-04-08 06:52:00,55.6,37.2,28.35,South,181,0.0,0.0,50,0.00,,---,0.00,VWS V14.01,2013-04-08 11:52:00,
2013-04-08 06:53:00,55.6,37.2,28.35,South,181,0.0,0.0,50,0.00,,---,0.00,VWS V14.01,2013-04-08 11:53:00,
2013-04-08 06:57:00,55.8,37.9,28.35,South,181,0.0,0.0,51,0.00,,---,0.00,VWS V14.01,2013-04-08 11:57:00,
2013-04-08 06:58:00,55.9,38.1,28.35,South,181,0.0,0.0,51,0.00,,---,0.00,VWS V14.01,2013-04-08 11:58:00,
2013-04-08 06:59:00,55.9,38.1,28.35,South,181,0.0,0.0,51,0.00,,---,0.00,VWS V14.01,2013-04-08 11:59:00,
2013-04-08 07:02:00,55.9,38.1,28.35,South,181,0.0,0.0,51,0.00,,---,0.00,VWS V14.01,2013-04-08 12:02:00,
2013-04-08 07:03:00,55.9,38.1,28.35,South,181,0.0,0.0,51,0.00,,---,0.00,VWS V14.01,2013-04-08 12:03:00,
2013-04-08 07:04:00,55.9,38.1,28.35,South,181,0.0,0.0,51,0.00,,---,0.00,VWS V14.01,2013-04-08 12:04:00,
2013-04-08 07:07:00,55.9,38.1,28.35,South,181,0.0,0.0,51,0.00,,---,0.00,VWS V14.01,2013-04-08 12:07:00,
2013-04-08 07:08:00,55.9,38.1,28.35,South,181,0.0,0.0,51,0.00,,---,0.00,VWS V14.01,2013-04-08 12:08:00,
2013-04-08 07:09:00,55.9,38.1,28.35,South,181,0.0,0.0,51,0.00,,---,0.00,VWS V14.01,2013-04-08 12:09:00,
2013-04-08 07:12:00,55.9,38.1,28.32,South,181,0.0,0.0,51,0.00,,---,0.00,VWS V14.01,2013-04-08 12:12:00,
2013-04-08 07:14:00,55.9,38.1,28.32,South,181,0.0,0.0,51,0.00,,---,0.00,VWS V14.01,2013-04-08 12:14:00,
2013-04-08 07:15:00,55.9,38.1,28.32,South,181,0.0,0.0,51,0.00,,---,0.00,VWS V14.01,2013-04-08 12:15:00,
2013-04-08 07:17:00,56.1,38.8,28.32,South,181,0.0,0.0,52,0.00,,---,0.00,VWS V14.01,2013-04-08 12:17:00,
2013-04-08 07:19:00,56.3,38.9,28.32,South,181,0.0,0.0,52,0.00,,---,0.00,VWS V14.01,2013-04-08 12:19:00,
2013-04-08 07:20:00,56.3,38.9,28.32,South,181,0.0,0.0,52,0.00,,---,0.00,VWS V14.01,2013-04-08 12:20:00,
2013-04-08 07:23:00,56.5,39.6,28.32,South,181,0.0,0.0,53,0.00,,---,0.00,VWS V14.01,2013-04-08 12:23:00,
2013-04-08 07:24:00,56.7,39.7,28.35,South,181,0.0,0.0,53,0.00,,---,0.00,VWS V14.01,2013-04-08 12:24:00,
2013-04-08 07:25:00,56.7,39.7,28.35,South,181,0.0,0.0,53,0.00,,---,0.00,VWS V14.01,2013-04-08 12:25:00,
2013-04-08 07:28:00,56.7,39.7,28.35,South,181,0.0,0.0,53,0.00,,---,0.00,VWS V14.01,2013-04-08 12:28:00,
2013-04-08 07:29:00,57.2,40.2,28.35,South,181,2.7,2.7,53,0.00,,---,0.00,VWS V14.01,2013-04-08 12:29:00,
2013-04-08 07:30:00,57.2,40.2,28.35,South,181,2.7,2.7,53,0.00,,---,0.00,VWS V14.01,2013-04-08 12:30:00,
2013-04-08 07:33:00,57.4,40.4,28.35,South,181,2.7,2.7,53,0.00,,---,0.00,VWS V14.01,2013-04-08 12:33:00,
2013-04-08 07:35:00,57.6,40.6,28.35,South,181,2.7,2.7,53,0.00,,---,0.00,VWS V14.01,2013-04-08 12:35:00,
2013-04-08 07:38:00,57.9,40.9,28.35,South,181,2.7,2.7,53,0.00,,---,0.00,VWS V14.01,2013-04-08 12:38:00,
2013-04-08 07:40:00,57.9,40.9,28.35,South,180,3.1,3.1,53,0.00,,---,0.00,VWS V14.01,2013-04-08 12:40:00,
2013-04-08 07:41:00,58.1,40.6,28.35,South,180,3.1,3.1,52,0.00,,---,0.00,VWS V14.01,2013-04-08 12:41:00,
2013-04-08 07:43:00,58.1,40.6,28.35,South,179,2.7,3.1,52,0.00,,---,0.00,VWS V14.01,2013-04-08 12:43:00,
2013-04-08 07:45:00,58.3,40.8,28.35,South,183,3.6,4.9,52,0.00,,---,0.00,VWS V14.01,2013-04-08 12:45:00,
2013-04-08 07:46:00,58.3,40.8,28.35,South,182,3.1,3.6,52,0.00,,---,0.00,VWS V14.01,2013-04-08 12:46:00,
2013-04-08 07:48:00,58.5,40.9,28.35,South,178,4.0,4.0,52,0.00,,---,0.00,VWS V14.01,2013-04-08 12:48:00,
2013-04-08 07:50:00,58.8,40.8,28.35,South,176,5.8,5.8,51,0.00,,---,0.00,VWS V14.01,2013-04-08 12:50:00,
2013-04-08 07:51:00,59.0,40.4,28.35,South,180,4.5,5.8,50,0.00,,---,0.00,VWS V14.01,2013-04-08 12:51:00,
2013-04-08 07:52:00,59.4,40.7,28.35,SSE,162,5.4,5.4,50,0.00,,---,0.00,VWS V14.01,2013-04-08 12:52:00,
2013-04-08 07:54:00,59.5,40.4,28.35,South,181,6.3,6.3,49,0.00,,---,0.00,VWS V14.01,2013-04-08 12:54:00,
2013-04-08 07:55:00,59.7,40.5,28.35,South,178,6.3,6.7,49,0.00,,---,0.00,VWS V14.01,2013-04-08 12:55:00,
2013-04-08 07:56:00,60.4,40.7,28.35,SSE,156,7.6,7.6,48,0.00,,---,0.00,VWS V14.01,2013-04-08 12:56:00,
2013-04-08 07:57:00,60.4,40.7,28.35,SSE,166,5.8,5.8,48,0.00,,---,0.00,VWS V14.01,2013-04-08 12:57:00,
2013-04-08 07:59:00,60.8,40.5,28.35,SSE,166,5.8,5.8,47,0.00,,---,0.00,VWS V14.01,2013-04-08 12:59:00,
2013-04-08 08:00:00,61.2,40.2,28.35,SE,146,6.7,8.3,46,0.00,,---,0.00,VWS V14.01,2013-04-08 13:00:00,
2013-04-08 08:02:00,61.7,40.2,28.35,SE,146,6.7,6.7,45,0.00,,---,0.00,VWS V14.01,2013-04-08 13:02:00,
2013-04-08 08:03:00,61.7,40.2,28.35,SE,146,6.7,6.7,45,0.00,,---,0.00,VWS V14.01,2013-04-08 13:03:00,
2013-04-08 08:04:00,61.7,40.2,28.35,South,170,5.4,8.1,45,0.00,,---,0.00,VWS V14.01,2013-04-08 13:04:00,
2013-04-08 08:05:00,61.7,40.2,28.35,SSE,165,6.3,6.3,45,0.00,,---,0.00,VWS V14.01,2013-04-08 13:05:00,
2013-04-08 08:07:00,63.0,40.1,28.35,SSE,165,6.3,6.3,43,0.00,,---,0.00,VWS V14.01,2013-04-08 13:07:00,
2013-04-08 08:08:00,63.1,40.3,28.35,SSE,165,6.3,6.3,43,0.00,,---,0.00,VWS V14.01,2013-04-08 13:08:00,
2013-04-08 08:09:00,63.1,40.3,28.32,South,169,4.0,4.0,43,0.00,,---,0.00,VWS V14.01,2013-04-08 13:09:00,
2013-04-08 08:10:00,63.7,39.6,28.32,SE,125,5.8,5.8,41,0.00,,---,0.00,VWS V14.01,2013-04-08 13:10:00,
2013-04-08 08:12:00,63.7,39.6,28.32,SSE,152,5.8,5.8,41,0.00,,---,0.00,VWS V14.01,2013-04-08 13:12:00,
2013-04-08 08:13:00,64.4,39.6,28.32,SSE,157,6.3,6.3,40,0.00,,---,0.00,VWS V14.01,2013-04-08 13:13:00,
2013-04-08 08:14:00,64.4,39.6,28.32,South,180,8.7,8.7,40,0.00,,---,0.00,VWS V14.01,2013-04-08 13:14:00,
2013-04-08 08:15:00,64.9,38.8,28.32,SSE,155,7.6,7.6,38,0.00,,---,0.00,VWS V14.01,2013-04-08 13:15:00,
2013-04-08 08:17:00,65.3,38.4,28.32,SSE,155,7.6,7.6,37,0.00,,---,0.00,VWS V14.01,2013-04-08 13:17:00,
2013-04-08 08:18:00,65.5,38.5,28.32,SSE,152,3.1,5.8,37,0.00,,---,0.00,VWS V14.01,2013-04-08 13:18:00,
2013-04-08 08:19:00,65.7,38.7,28.32,SSE,164,6.3,6.3,37,0.00,,---,0.00,VWS V14.01,2013-04-08 13:19:00,
2013-04-08 08:21:00,65.7,38.7,28.32,SSW,201,7.6,7.6,37,0.00,,---,0.00,VWS V14.01,2013-04-08 13:21:00,
2013-04-08 08:22:00,66.0,38.3,28.32,SSW,201,7.6,7.6,36,0.00,,---,0.00,VWS V14.01,2013-04-08 13:22:00,
2013-04-08 08:23:00,66.2,38.5,28.32,SSW,201,7.6,7.6,36,0.00,,---,0.00,VWS V14.01,2013-04-08 13:23:00,
2013-04-08 08:24:00,66.4,37.9,28.32,SSE,160,10.1,10.1,35,0.00,,---,0.00,VWS V14.01,2013-04-08 13:24:00,
2013-04-08 08:26:00,66.6,38.1,28.32,South,184,5.4,7.6,35,0.00,,---,0.00,VWS V14.01,2013-04-08 13:26:00,
2013-04-08 08:27:00,66.9,37.7,28.32,ESE,106,5.8,5.8,34,0.00,,---,0.00,VWS V14.01,2013-04-08 13:27:00,
2013-04-08 08:28:00,66.9,37.7,28.35,ESE,106,5.8,5.8,34,0.00,,---,0.00,VWS V14.01,2013-04-08 13:28:00,
2013-04-08 08:29:00,66.9,37.7,28.35,South,177,5.4,5.8,34,0.00,,---,0.00,VWS V14.01,2013-04-08 13:29:00,
2013-04-08 08:31:00,66.9,37.7,28.35,SSE,167,5.8,5.8,34,0.00,,---,0.00,VWS V14.01,2013-04-08 13:31:00,
2013-04-08 08:33:00,67.3,38.0,28.35,SSE,155,3.6,4.9,34,0.00,,---,0.00,VWS V14.01,2013-04-08 13:33:00,
2013-04-08 08:34:00,67.3,37.2,28.35,South,183,5.4,8.1,33,0.00,,---,0.00,VWS V14.01,2013-04-08 13:34:00,
2013-04-08 08:35:00,67.3,37.2,28.35,South,171,6.3,6.3,33,0.00,,---,0.00,VWS V14.01,2013-04-08 13:35:00,
2013-04-08 08:36:00,67.1,37.1,28.35,SSE,155,4.5,5.4,33,0.00,,---,0.00,VWS V14.01,2013-04-08 13:36:00,
2013-04-08 08:38:00,67.3,37.2,28.35,South,180,4.0,5.4,33,0.00,,---,0.00,VWS V14.01,2013-04-08 13:38:00,
2013-04-08 08:39:00,67.6,38.3,28.35,NW,307,3.6,4.0,34,0.00,,---,0.00,VWS V14.01,2013-04-08 13:39:00,
2013-04-08 08:40:00,67.8,37.7,28.35,South,171,4.5,4.5,33,0.00,,---,0.00,VWS V14.01,2013-04-08 13:40:00,
2013-04-08 08:42:00,68.4,38.2,28.35,SSE,159,5.4,5.4,33,0.00,,---,0.00,VWS V14.01,2013-04-08 13:42:00,
2013-04-08 08:43:00,68.5,38.3,28.35,SSE,159,5.4,5.4,33,0.00,,---,0.00,VWS V14.01,2013-04-08 13:43:00,
2013-04-08 08:45:00,68.9,38.6,28.35,SSW,195,4.0,4.0,33,0.00,,---,0.00,VWS V14.01,2013-04-08 13:45:00,
2013-04-08 08:47:00,68.9,37.8,28.35,SSW,195,4.0,4.0,32,0.00,,---,0.00,VWS V14.01,2013-04-08 13:47:00,
2013-04-08 08:48:00,68.9,37.8,28.35,SSE,162,3.6,3.6,32,0.00,,---,0.00,VWS V14.01,2013-04-08 13:48:00,
2013-04-08 08:51:00,68.9,37.8,28.35,SSW,197,4.5,4.5,32,0.00,,---,0.00,VWS V14.01,2013-04-08 13:51:00,
2013-04-08 08:52:00,68.9,37.8,28.35,SSE,158,7.6,7.6,32,0.00,,---,0.00,VWS V14.01,2013-04-08 13:52:00,
2013-04-08 08:54:00,68.5,37.5,28.35,SSE,150,4.0,4.0,32,0.00,,---,0.00,VWS V14.01,2013-04-08 13:54:00,
2013-04-08 08:56:00,68.5,37.5,28.35,SE,145,5.8,5.8,32,0.00,,---,0.00,VWS V14.01,2013-04-08 13:56:00,
2013-04-08 08:57:00,68.4,37.4,28.35,SSE,159,8.1,8.1,32,0.00,,---,0.00,VWS V14.01,2013-04-08 13:57:00,
2013-04-08 08:59:00,68.2,36.4,28.35,SSE,149,4.0,4.9,31,0.00,,---,0.00,VWS V14.01,2013-04-08 13:59:00,
2013-04-08 09:01:00,68.2,36.4,28.35,SSE,150,5.4,5.4,31,0.00,,---,0.00,VWS V14.01,2013-04-08 14:01:00,
2013-04-08 09:02:00,68.0,37.1,28.35,South,169,4.0,4.0,32,0.00,,---,0.00,VWS V14.01,2013-04-08 14:02:00,
2013-04-08 09:04:00,68.0,37.1,28.35,South,183,5.4,6.3,32,0.00,,---,0.00,VWS V14.01,2013-04-08 14:04:00,
2013-04-08 09:06:00,68.0,37.1,28.35,South,187,5.4,5.4,32,0.00,,---,0.00,VWS V14.01,2013-04-08 14:06:00,
2013-04-08 09:07:00,68.0,37.1,28.35,South,182,6.3,6.3,32,0.00,,---,0.00,VWS V14.01,2013-04-08 14:07:00,
2013-04-08 09:09:00,67.8,36.9,28.35,South,180,10.1,10.1,32,0.00,,---,0.00,VWS V14.01,2013-04-08 14:09:00,
2013-04-08 09:11:00,67.8,36.9,28.35,SSE,149,10.1,10.1,32,0.00,,---,0.00,VWS V14.01,2013-04-08 14:11:00,
2013-04-08 09:12:00,67.8,36.9,28.35,SSE,158,3.1,6.3,32,0.00,,---,0.00,VWS V14.01,2013-04-08 14:12:00,
2013-04-08 09:14:00,68.2,37.2,28.32,South,172,7.6,7.6,32,0.00,,---,0.00,VWS V14.01,2013-04-08 14:14:00,
2013-04-08 09:16:00,68.0,35.4,28.32,SSW,193,7.6,7.6,30,0.00,,---,0.00,VWS V14.01,2013-04-08 14:16:00,
2013-04-08 09:17:00,68.0,35.4,28.32,SSE,161,8.3,8.3,30,0.00,,---,0.00,VWS V14.01,2013-04-08 14:17:00,
2013-04-08 09:19:00,68.4,35.8,28.32,NNW,340,6.3,9.6,30,0.00,,---,0.00,VWS V14.01,2013-04-08 14:19:00,
2013-04-08 09:22:00,68.4,35.8,28.32,SSE,153,5.8,8.1,30,0.00,,---,0.00,VWS V14.01,2013-04-08 14:22:00,
2013-04-08 09:24:00,68.4,35.8,28.32,SE,133,6.3,6.3,30,0.00,,---,0.00,VWS V14.01,2013-04-08 14:24:00,
2013-04-08 09:27:00,68.5,34.2,28.35,South,173,11.0,11.0,28,0.00,,---,0.00,VWS V14.01,2013-04-08 14:27:00,
2013-04-08 09:28:00,68.7,36.1,28.35,SSE,158,8.3,8.3,30,0.00,,---,0.00,VWS V14.01,2013-04-08 14:28:00,
2013-04-08 09:29:00,68.7,34.3,28.35,NW,306,5.8,8.3,28,0.00,,---,0.00,VWS V14.01,2013-04-08 14:29:00,
2013-04-08 09:32:00,68.7,35.2,28.35,South,178,11.0,11.0,29,0.00,,---,0.00,VWS V14.01,2013-04-08 14:32:00,
2013-04-08 09:33:00,68.9,35.4,28.35,South,173,5.4,11.0,29,0.00,,---,0.00,VWS V14.01,2013-04-08 14:33:00,
2013-04-08 09:34:00,69.1,34.6,28.35,NW,315,3.1,3.1,28,0.00,,---,0.00,VWS V14.01,2013-04-08 14:34:00,
2013-04-08 09:37:00,69.6,36.8,28.35,West,264,10.1,10.1,30,0.00,,---,0.00,VWS V14.01,2013-04-08 14:37:00,
2013-04-08 09:38:00,69.6,36.8,28.35,West,264,10.1,10.1,30,0.00,,---,0.00,VWS V14.01,2013-04-08 14:38:00,
2013-04-08 09:40:00,70.2,34.7,28.35,SSW,206,4.9,4.9,27,0.00,,---,0.00,VWS V14.01,2013-04-08 14:40:00,
2013-04-08 09:42:00,70.2,35.6,28.35,South,185,10.5,10.5,28,0.00,,---,0.00,VWS V14.01,2013-04-08 14:42:00,
2013-04-08 09:43:00,70.3,33.9,28.35,South,185,10.5,10.5,26,0.00,,---,0.00,VWS V14.01,2013-04-08 14:43:00,
2013-04-08 09:45:00,70.3,33.9,28.35,SE,140,8.3,10.1,26,0.00,,---,0.00,VWS V14.01,2013-04-08 14:45:00,
2013-04-08 09:48:00,70.3,33.9,28.35,SE,130,8.1,8.1,26,0.00,,---,0.00,VWS V14.01,2013-04-08 14:48:00,
2013-04-08 09:50:00,70.9,35.3,28.35,South,169,12.8,12.8,27,0.00,,---,0.00,VWS V14.01,2013-04-08 14:50:00,
2013-04-08 09:53:00,71.1,33.5,28.35,SE,141,5.4,11.0,25,0.00,,---,0.00,VWS V14.01,2013-04-08 14:53:00,
2013-04-08 09:54:00,70.9,34.3,28.35,SSW,200,5.4,5.4,26,0.00,,---,0.00,VWS V14.01,2013-04-08 14:54:00,
2013-04-08 09:55:00,70.9,34.3,28.35,SSE,168,3.1,3.1,26,0.00,,---,0.00,VWS V14.01,2013-04-08 14:55:00,
2013-04-08 09:58:00,70.9,33.3,28.35,SSE,168,3.1,3.1,25,0.00,,---,0.00,VWS V14.01,2013-04-08 14:58:00,
2013-04-08 09:59:00,71.1,34.5,28.35,South,189,11.0,11.0,26,0.00,,---,0.00,VWS V14.01,2013-04-08 14:59:00,
2013-04-08 10:00:00,71.2,33.6,28.35,South,189,11.0,11.0,25,0.00,,---,0.00,VWS V14.01,2013-04-08 15:00:00,
2013-04-08 10:03:00,72.3,34.6,28.35,SSW,199,3.6,3.6,25,0.00,,---,0.00,VWS V14.01,2013-04-08 15:03:00,
2013-04-08 10:04:00,72.3,34.6,28.35,SE,145,4.0,4.0,25,0.00,,---,0.00,VWS V14.01,2013-04-08 15:04:00,
2013-04-08 10:05:00,73.0,35.2,28.35,SW,216,4.0,4.0,25,0.00,,---,0.00,VWS V14.01,2013-04-08 15:05:00,
2013-04-08 10:08:00,73.6,34.6,28.35,South,187,6.3,7.6,24,0.00,,---,0.00,VWS V14.01,2013-04-08 15:08:00,
2013-04-08 10:09:00,73.2,35.3,28.35,South,190,8.7,8.7,25,0.00,,---,0.00,VWS V14.01,2013-04-08 15:09:00,
2013-04-08 10:10:00,73.2,35.3,28.35,South,190,8.7,8.7,25,0.00,,---,0.00,VWS V14.01,2013-04-08 15:10:00,
2013-04-08 10:13:00,72.7,32.8,28.35,SSE,156,6.3,6.3,23,0.00,,---,0.00,VWS V14.01,2013-04-08 15:13:00,
2013-04-08 10:14:00,72.5,33.7,28.35,SSE,156,6.3,6.3,24,0.00,,---,0.00,VWS V14.01,2013-04-08 15:14:00,
2013-04-08 10:15:00,72.5,34.7,28.35,SSE,156,6.3,6.3,25,0.00,,---,0.00,VWS V14.01,2013-04-08 15:15:00,
2013-04-08 10:18:00,71.6,32.9,28.35,North,357,8.1,8.1,24,0.00,,---,0.00,VWS V14.01,2013-04-08 15:18:00,
2013-04-08 10:19:00,71.4,32.8,28.35,North,357,8.1,8.1,24,0.00,,---,0.00,VWS V14.01,2013-04-08 15:19:00,
2013-04-08 10:20:00,71.4,32.8,28.35,SE,135,8.7,8.7,24,0.00,,---,0.00,VWS V14.01,2013-04-08 15:20:00,
2013-04-08 10:24:00,72.0,33.2,28.35,West,267,3.6,3.6,24,0.00,,---,0.00,VWS V14.01,2013-04-08 15:24:00,
2013-04-08 10:25:00,72.0,33.2,28.35,South,170,6.3,6.3,24,0.00,,---,0.00,VWS V14.01,2013-04-08 15:25:00,
2013-04-08 10:29:00,72.7,33.8,28.35,West,259,6.3,7.2,24,0.00,,---,0.00,VWS V14.01,2013-04-08 15:29:00,
2013-04-08 10:30:00,72.7,33.8,28.35,West,259,6.3,7.2,24,0.00,,---,0.00,VWS V14.01,2013-04-08 15:30:00,
2013-04-08 10:31:00,72.7,33.8,28.35,West,259,6.3,6.3,24,0.00,,---,0.00,VWS V14.01,2013-04-08 15:31:00,
2013-04-08 10:35:00,74.3,33.0,28.35,South,180,8.7,11.0,22,0.00,,---,0.00,VWS V14.01,2013-04-08 15:35:00,
2013-04-08 10:36:00,74.1,32.9,28.35,SE,135,8.7,8.7,22,0.00,,---,0.00,VWS V14.01,2013-04-08 15:36:00,
2013-04-08 10:40:00,74.5,34.3,28.35,SSE,159,5.4,8.7,23,0.00,,---,0.00,VWS V14.01,2013-04-08 15:40:00,
2013-04-08 10:41:00,74.7,34.4,28.35,SSW,203,10.5,10.5,23,0.00,,---,0.00,VWS V14.01,2013-04-08 15:41:00,
2013-04-08 10:45:00,75.6,34.1,28.35,SSW,203,10.5,10.5,22,0.00,,---,0.00,VWS V14.01,2013-04-08 15:45:00,
2013-04-08 10:46:00,75.6,34.1,28.35,SW,219,4.9,4.9,22,0.00,,---,0.00,VWS V14.01,2013-04-08 15:46:00,
2013-04-08 10:47:00,75.6,34.1,28.35,South,187,5.4,5.4,22,0.00,,---,0.00,VWS V14.01,2013-04-08 15:47:00,
2013-04-08 10:50:00,75.6,34.1,28.35,SSE,164,6.3,6.3,22,0.00,,---,0.00,VWS V14.01,2013-04-08 15:50:00,
2013-04-08 10:52:00,75.9,34.4,28.38,SSE,149,8.3,10.1,22,0.00,,---,0.00,VWS V14.01,2013-04-08 15:52:00,
2013-04-08 10:55:00,75.2,33.8,28.38,SSE,152,8.3,8.3,22,0.00,,---,0.00,VWS V14.01,2013-04-08 15:55:00,
2013-04-08 10:56:00,74.8,33.5,28.38,South,172,8.7,8.7,22,0.00,,---,0.00,VWS V14.01,2013-04-08 15:56:00,
2013-04-08 10:57:00,74.7,33.3,28.38,South,188,12.3,12.3,22,0.00,,---,0.00,VWS V14.01,2013-04-08 15:57:00,
2013-04-08 10:58:00,74.7,33.3,28.38,SSE,153,8.3,12.3,22,0.00,,---,0.00,VWS V14.01,2013-04-08 15:58:00,
2013-04-08 11:00:00,74.3,33.0,28.38,WSW,250,4.9,5.8,22,0.00,,---,0.00,VWS V14.01,2013-04-08 16:00:00,
2013-04-08 11:02:00,74.5,33.2,28.38,WSW,250,4.9,4.9,22,0.00,,---,0.00,VWS V14.01,2013-04-08 16:02:00,
2013-04-08 11:03:00,74.8,33.5,28.38,South,190,8.3,8.3,22,0.00,,---,0.00,VWS V14.01,2013-04-08 16:03:00,
2013-04-08 11:05:00,75.2,33.8,28.38,South,190,5.8,5.8,22,0.00,,---,0.00,VWS V14.01,2013-04-08 16:05:00,
2013-04-08 11:07:00,75.6,34.1,28.38,South,179,5.8,6.3,22,0.00,,---,0.00,VWS V14.01,2013-04-08 16:07:00,
2013-04-08 11:08:00,75.7,33.1,28.38,NW,306,8.7,8.7,21,0.00,,---,0.00,VWS V14.01,2013-04-08 16:08:00,
2013-04-08 11:10:00,75.7,33.1,28.38,WSW,252,2.2,5.8,21,0.00,,---,0.00,VWS V14.01,2013-04-08 16:10:00,
2013-04-08 11:12:00,75.9,34.4,28.38,SE,143,4.9,4.9,22,0.00,,---,0.00,VWS V14.01,2013-04-08 16:12:00,
2013-04-08 11:13:00,75.9,34.4,28.38,SSE,162,2.7,5.8,22,0.00,,---,0.00,VWS V14.01,2013-04-08 16:13:00,
2013-04-08 11:15:00,75.4,32.8,28.38,SSE,157,4.5,4.5,21,0.00,,---,0.00,VWS V14.01,2013-04-08 16:15:00,
2013-04-08 11:17:00,75.6,32.9,28.38,South,180,3.6,5.8,21,0.00,,---,0.00,VWS V14.01,2013-04-08 16:17:00,
2013-04-08 11:18:00,75.6,32.9,28.38,SSE,161,4.0,4.0,21,0.00,,---,0.00,VWS V14.01,2013-04-08 16:18:00,
2013-04-08 11:20:00,75.6,32.9,28.38,South,169,12.8,12.8,21,0.00,,---,0.00,VWS V14.01,2013-04-08 16:20:00,
2013-04-08 11:22:00,75.6,32.9,28.38,SSW,194,8.3,8.3,21,0.00,,---,0.00,VWS V14.01,2013-04-08 16:22:00,
2013-04-08 11:23:00,74.8,33.5,28.38,SSW,192,5.8,6.3,22,0.00,,---,0.00,VWS V14.01,2013-04-08 16:23:00,
2013-04-08 11:25:00,74.7,33.3,28.38,SSE,157,5.8,5.8,22,0.00,,---,0.00,VWS V14.01,2013-04-08 16:25:00,
2013-04-08 11:27:00,74.8,33.5,28.38,South,177,4.0,5.8,22,0.00,,---,0.00,VWS V14.01,2013-04-08 16:27:00,
2013-04-08 11:29:00,75.2,33.8,28.38,South,177,4.0,4.0,22,0.00,,---,0.00,VWS V14.01,2013-04-08 16:29:00,
2013-04-08 11:30:00,75.2,33.8,28.38,South,177,4.0,4.0,22,0.00,,---,0.00,VWS V14.01,2013-04-08 16:30:00,
2013-04-08 11:31:00,75.4,33.9,28.38,South,177,4.0,4.0,22,0.00,,---,0.00,VWS V14.01,2013-04-08 16:31:00,
2013-04-08 11:32:00,75.9,34.4,28.38,SSW,194,9.6,9.6,22,0.00,,---,0.00,VWS V14.01,2013-04-08 16:32:00,
2013-04-08 11:34:00,76.3,34.7,28.38,South,172,12.3,12.3,22,0.00,,---,0.00,VWS V14.01,2013-04-08 16:34:00,
2013-04-08 11:35:00,76.5,34.8,28.38,South,172,12.3,12.3,22,0.00,,---,0.00,VWS V14.01,2013-04-08 16:35:00,
2013-04-08 11:36:00,76.3,33.5,28.38,South,172,12.3,12.3,21,0.00,,---,0.00,VWS V14.01,2013-04-08 16:36:00,
2013-04-08 11:37:00,76.3,33.5,28.38,SE,144,10.5,11.0,21,0.00,,---,0.00,VWS V14.01,2013-04-08 16:37:00,
2013-04-08 11:39:00,75.2,32.6,28.38,SE,144,10.5,10.5,21,0.00,,---,0.00,VWS V14.01,2013-04-08 16:39:00,
2013-04-08 11:40:00,75.2,33.8,28.38,South,169,6.3,10.5,22,0.00,,---,0.00,VWS V14.01,2013-04-08 16:40:00,
2013-04-08 11:41:00,75.0,33.6,28.38,SSE,164,5.8,13.2,22,0.00,,---,0.00,VWS V14.01,2013-04-08 16:41:00,
2013-04-08 11:42:00,75.0,33.6,28.35,SSE,164,5.8,5.8,22,0.00,,---,0.00,VWS V14.01,2013-04-08 16:42:00,
2013-04-08 11:45:00,75.7,34.2,28.35,South,179,5.8,8.7,22,0.00,,---,0.00,VWS V14.01,2013-04-08 16:45:00,
2013-04-08 11:46:00,76.3,34.7,28.35,SSE,147,8.1,12.3,22,0.00,,---,0.00,VWS V14.01,2013-04-08 16:46:00,
2013-04-08 11:48:00,76.5,34.8,28.35,SSE,147,8.1,8.1,22,0.00,,---,0.00,VWS V14.01,2013-04-08 16:48:00,
2013-04-08 11:50:00,76.6,35.0,28.35,South,175,5.8,7.2,22,0.00,,---,0.00,VWS V14.01,2013-04-08 16:50:00,
2013-04-08 11:51:00,76.6,35.0,28.35,South,175,5.8,5.8,22,0.00,,---,0.00,VWS V14.01,2013-04-08 16:51:00,
2013-04-08 11:53:00,76.8,35.1,28.35,SSE,161,8.7,8.7,22,0.00,,---,0.00,VWS V14.01,2013-04-08 16:53:00,
2013-04-08 11:55:00,76.3,33.5,28.35,South,173,13.2,13.2,21,0.00,,---,0.00,VWS V14.01,2013-04-08 16:55:00,
2013-04-08 11:57:00,76.3,33.5,28.32,South,173,13.2,13.2,21,0.00,,---,0.00,VWS V14.01,2013-04-08 16:57:00,
2013-04-08 11:58:00,76.5,33.7,28.32,South,172,11.0,13.2,21,0.00,,---,0.00,VWS V14.01,2013-04-08 16:58:00,
2013-04-08 12:00:00,76.5,33.7,28.32,SSE,163,10.1,10.1,21,0.00,,---,0.00,VWS V14.01,2013-04-08 17:00:00,
2013-04-08 12:02:00,76.8,34.0,28.32,South,185,4.0,4.0,21,0.00,,---,0.00,VWS V14.01,2013-04-08 17:02:00,
2013-04-08 12:04:00,76.8,34.0,28.32,South,170,11.0,11.0,21,0.00,,---,0.00,VWS V14.01,2013-04-08 17:04:00,
2013-04-08 12:05:00,77.0,34.1,28.32,South,170,8.1,8.1,21,0.00,,---,0.00,VWS V14.01,2013-04-08 17:05:00,
2013-04-08 12:07:00,77.0,34.1,28.32,SSE,162,8.7,8.7,21,0.00,,---,0.00,VWS V14.01,2013-04-08 17:07:00,
2013-04-08 12:09:00,77.0,34.1,28.32,South,179,10.1,10.1,21,0.00,,---,0.00,VWS V14.01,2013-04-08 17:09:00,
2013-04-08 12:10:00,77.5,34.6,28.32,SSE,164,3.6,3.6,21,0.00,,---,0.00,VWS V14.01,2013-04-08 17:10:00,
2013-04-08 12:12:00,77.4,34.4,28.32,SSE,160,8.3,8.3,21,0.00,,---,0.00,VWS V14.01,2013-04-08 17:12:00,
2013-04-08 12:14:00,77.5,34.6,28.35,SSE,163,8.3,8.3,21,0.00,,---,0.00,VWS V14.01,2013-04-08 17:14:00,
2013-04-08 12:15:00,76.8,34.0,28.35,SSE,168,5.4,8.3,21,0.00,,---,0.00,VWS V14.01,2013-04-08 17:15:00,
2013-04-08 12:16:00,76.8,34.0,28.35,South,169,5.4,5.4,21,0.00,,---,0.00,VWS V14.01,2013-04-08 17:16:00,
2013-04-08 12:17:00,77.0,34.1,28.35,South,169,5.4,5.4,21,0.00,,---,0.00,VWS V14.01,2013-04-08 17:17:00,
2013-04-08 12:20:00,76.8,34.0,28.35,SSE,159,8.3,8.3,21,0.00,,---,0.00,VWS V14.01,2013-04-08 17:20:00,
2013-04-08 12:21:00,76.8,34.0,28.35,SSE,159,8.3,8.3,21,0.00,,---,0.00,VWS V14.01,2013-04-08 17:21:00,
2013-04-08 12:22:00,76.8,34.0,28.35,SSE,159,8.3,8.3,21,0.00,,---,0.00,VWS V14.01,2013-04-08 17:22:00,
2013-04-08 12:25:00,76.5,33.7,28.35,SSE,150,11.0,11.0,21,0.00,,---,0.00,VWS V14.01,2013-04-08 17:25:00,
2013-04-08 12:27:00,76.5,33.7,28.35,South,176,8.1,8.1,21,0.00,,---,0.00,VWS V14.01,2013-04-08 17:27:00,
2013-04-08 12:28:00,77.2,34.3,28.35,SW,229,10.1,10.1,21,0.00,,---,0.00,VWS V14.01,2013-04-08 17:28:00,
2013-04-08 12:30:00,77.0,32.9,28.35,South,189,10.1,10.1,20,0.00,,---,0.00,VWS V14.01,2013-04-08 17:30:00,
2013-04-08 12:32:00,77.5,33.3,28.35,SW,215,8.3,8.3,20,0.00,,---,0.00,VWS V14.01,2013-04-08 17:32:00,
2013-04-08 12:33:00,77.5,33.3,28.35,SE,140,8.7,8.7,20,0.00,,---,0.00,VWS V14.01,2013-04-08 17:33:00,
2013-04-08 12:35:00,77.9,33.6,28.35,SW,228,8.1,8.3,20,0.00,,---,0.00,VWS V14.01,2013-04-08 17:35:00,
2013-04-08 12:36:00,77.9,33.6,28.35,SW,228,8.1,8.3,20,0.00,,---,0.00,VWS V14.01,2013-04-08 17:36:00,
2013-04-08 12:37:00,78.1,33.8,28.35,South,188,7.6,7.6,20,0.00,,---,0.00,VWS V14.01,2013-04-08 17:37:00,
2013-04-08 12:38:00,78.3,33.9,28.35,South,188,7.6,7.6,20,0.00,,---,0.00,VWS V14.01,2013-04-08 17:38:00,
2013-04-08 12:40:00,78.3,33.9,28.35,SW,221,9.6,9.6,20,0.00,,---,0.00,VWS V14.01,2013-04-08 17:40:00,
2013-04-08 12:41:00,78.3,33.9,28.35,SW,221,9.6,9.6,20,0.00,,---,0.00,VWS V14.01,2013-04-08 17:41:00,
2013-04-08 12:43:00,78.6,34.2,28.35,SSE,165,7.6,7.6,20,0.00,,---,0.00,VWS V14.01,2013-04-08 17:43:00,
2013-04-08 12:46:00,78.8,34.4,28.35,SSE,162,7.6,7.6,20,0.00,,---,0.00,VWS V14.01,2013-04-08 17:46:00,
2013-04-08 12:47:00,78.8,34.4,28.35,SSE,165,7.6,12.8,20,0.00,,---,0.00,VWS V14.01,2013-04-08 17:47:00,
2013-04-08 12:48:00,77.0,30.3,28.32,SE,136,8.1,8.1,18,0.00,,---,0.00,VWS V14.01,2013-04-08 17:48:00,
2013-04-08 12:51:00,76.6,32.6,28.32,SSW,209,4.9,4.9,20,0.00,,---,0.00,VWS V14.01,2013-04-08 17:51:00,
2013-04-08 12:52:00,76.6,32.6,28.32,WSW,239,8.7,8.7,20,0.00,,---,0.00,VWS V14.01,2013-04-08 17:52:00,
2013-04-08 12:53:00,75.4,31.6,28.32,SSW,192,5.4,5.4,20,0.00,,---,0.00,VWS V14.01,2013-04-08 17:53:00,
2013-04-08 12:55:00,75.2,32.6,28.35,South,177,3.1,5.4,21,0.00,,---,0.00,VWS V14.01,2013-04-08 17:55:00,
2013-04-08 12:56:00,74.8,32.3,28.35,South,176,4.0,4.0,21,0.00,,---,0.00,VWS V14.01,2013-04-08 17:56:00,
2013-04-08 12:57:00,74.7,32.2,28.35,South,176,4.0,4.0,21,0.00,,---,0.00,VWS V14.01,2013-04-08 17:57:00,
2013-04-08 12:58:00,74.7,32.2,28.35,South,176,4.0,4.0,21,0.00,,---,0.00,VWS V14.01,2013-04-08 17:58:00,
2013-04-08 13:00:00,74.3,31.9,28.35,South,186,6.3,7.2,21,0.00,,---,0.00,VWS V14.01,2013-04-08 18:00:00,
2013-04-08 13:01:00,73.9,31.6,28.35,SSE,163,6.3,6.3,21,0.00,,---,0.00,VWS V14.01,2013-04-08 18:01:00,
2013-04-08 13:02:00,73.8,31.4,28.35,WSW,244,8.3,8.7,21,0.00,,---,0.00,VWS V14.01,2013-04-08 18:02:00,
2013-04-08 13:03:00,73.8,32.6,28.35,WSW,244,8.3,8.3,22,0.00,,---,0.00,VWS V14.01,2013-04-08 18:03:00,
2013-04-08 13:05:00,73.8,32.6,28.35,West,265,7.6,8.3,22,0.00,,---,0.00,VWS V14.01,2013-04-08 18:05:00,
2013-04-08 13:06:00,73.8,32.6,28.35,South,172,5.4,5.4,22,0.00,,---,0.00,VWS V14.01,2013-04-08 18:06:00,
2013-04-08 13:07:00,73.8,32.6,28.35,South,172,5.4,5.4,22,0.00,,---,0.00,VWS V14.01,2013-04-08 18:07:00,
2013-04-08 13:08:00,73.8,32.6,28.35,South,175,6.7,6.7,22,0.00,,---,0.00,VWS V14.01,2013-04-08 18:08:00,
2013-04-08 13:10:00,73.8,32.6,28.35,SE,136,7.6,7.6,22,0.00,,---,0.00,VWS V14.01,2013-04-08 18:10:00,
2013-04-08 13:11:00,74.1,32.9,28.35,South,180,8.3,10.1,22,0.00,,---,0.00,VWS V14.01,2013-04-08 18:11:00,
2013-04-08 13:12:00,74.1,32.9,28.35,SSE,153,5.4,8.3,22,0.00,,---,0.00,VWS V14.01,2013-04-08 18:12:00,
2013-04-08 13:14:00,74.3,33.0,28.35,SE,137,5.4,5.4,22,0.00,,---,0.00,VWS V14.01,2013-04-08 18:14:00,
2013-04-08 13:15:00,74.5,34.3,28.35,SE,137,5.4,5.4,23,0.00,,---,0.00,VWS V14.01,2013-04-08 18:15:00,
2013-04-08 13:17:00,74.7,33.3,28.35,SSE,166,5.4,5.4,22,0.00,,---,0.00,VWS V14.01,2013-04-08 18:17:00,
2013-04-08 13:18:00,74.7,33.3,28.35,SSE,166,5.4,5.4,22,0.00,,---,0.00,VWS V14.01,2013-04-08 18:18:00,
2013-04-08 13:19:00,74.7,33.3,28.35,South,178,6.3,6.3,22,0.00,,---,0.00,VWS V14.01,2013-04-08 18:19:00,
2013-04-08 13:21:00,76.1,33.4,28.35,WSW,253,4.9,4.9,21,0.00,,---,0.00,VWS V14.01,2013-04-08 18:21:00,
2013-04-08 13:22:00,76.6,33.8,28.35,South,190,6.3,6.3,21,0.00,,---,0.00,VWS V14.01,2013-04-08 18:22:00,
2013-04-08 13:23:00,76.6,33.8,28.35,South,190,6.3,6.3,21,0.00,,---,0.00,VWS V14.01,2013-04-08 18:23:00,
2013-04-08 13:24:00,76.8,34.0,28.35,South,190,6.3,6.3,21,0.00,,---,0.00,VWS V14.01,2013-04-08 18:24:00,
2013-04-08 13:26:00,77.0,34.1,28.35,SE,146,4.0,4.0,21,0.00,,---,0.00,VWS V14.01,2013-04-08 18:26:00,
2013-04-08 13:28:00,77.5,33.3,28.35,South,171,8.7,8.7,20,0.00,,---,0.00,VWS V14.01,2013-04-08 18:28:00,
2013-04-08 13:29:00,77.5,30.7,28.35,South,171,8.7,8.7,18,0.00,,---,0.00,VWS V14.01,2013-04-08 18:29:00,
2013-04-08 13:31:00,77.5,30.7,28.35,South,183,13.2,13.2,18,0.00,,---,0.00,VWS V14.01,2013-04-08 18:31:00,
2013-04-08 13:33:00,77.9,31.0,28.35,SSW,199,5.8,8.3,18,0.00,,---,0.00,VWS V14.01,2013-04-08 18:33:00,
2013-04-08 13:34:00,77.9,31.0,28.35,SSE,164,5.4,5.8,18,0.00,,---,0.00,VWS V14.01,2013-04-08 18:34:00,
2013-04-08 13:37:00,78.1,31.2,28.35,SSW,211,2.7,3.6,18,0.00,,---,0.00,VWS V14.01,2013-04-08 18:37:00,
2013-04-08 13:38:00,78.8,30.4,28.35,South,181,8.1,8.1,17,0.00,,---,0.00,VWS V14.01,2013-04-08 18:38:00,
2013-04-08 13:40:00,79.3,30.8,28.35,SSW,201,3.6,8.1,17,0.00,,---,0.00,VWS V14.01,2013-04-08 18:40:00,
2013-04-08 13:42:00,79.5,35.0,28.32,South,171,4.0,4.0,20,0.00,,---,0.00,VWS V14.01,2013-04-08 18:42:00,
2013-04-08 13:43:00,79.7,28.0,28.32,South,171,4.0,4.0,15,0.00,,---,0.00,VWS V14.01,2013-04-08 18:43:00,
2013-04-08 13:44:00,79.7,28.0,28.32,SSW,192,11.0,11.0,15,0.00,,---,0.00,VWS V14.01,2013-04-08 18:44:00,
2013-04-08 13:45:00,79.3,30.8,28.32,SE,138,12.3,12.3,17,0.00,,---,0.00,VWS V14.01,2013-04-08 18:45:00,
2013-04-08 13:48:00,78.8,27.3,28.32,SE,138,12.3,12.3,15,0.00,,---,0.00,VWS V14.01,2013-04-08 18:48:00,
2013-04-08 13:49:00,78.8,27.3,28.32,SE,138,12.3,12.3,15,0.00,,---,0.00,VWS V14.01,2013-04-08 18:49:00,
2013-04-08 13:50:00,79.0,30.5,28.32,SE,138,12.3,12.3,17,0.00,,---,0.00,VWS V14.01,2013-04-08 18:50:00,
2013-04-08 13:53:00,79.3,30.8,28.32,SW,226,12.3,12.3,17,0.00,,---,0.00,VWS V14.01,2013-04-08 18:53:00,
2013-04-08 13:54:00,79.0,27.4,28.32,SSW,198,11.0,11.0,15,0.00,,---,0.00,VWS V14.01,2013-04-08 18:54:00,
2013-04-08 13:56:00,78.8,27.3,28.32,South,177,6.3,6.3,15,0.00,,---,0.00,VWS V14.01,2013-04-08 18:56:00,
2013-04-08 13:58:00,78.1,26.7,28.32,South,184,8.3,8.3,15,0.00,,---,0.00,VWS V14.01,2013-04-08 18:58:00,
2013-04-08 13:59:00,77.9,26.6,28.32,South,173,5.4,8.3,15,0.00,,---,0.00,VWS V14.01,2013-04-08 18:59:00,
2013-04-08 14:01:00,77.4,30.6,28.32,SSE,149,15.4,15.4,18,0.00,,---,0.00,VWS V14.01,2013-04-08 19:01:00,
2013-04-08 14:03:00,77.2,26.0,28.32,SSW,203,4.9,5.4,15,0.00,,---,0.00,VWS V14.01,2013-04-08 19:03:00,
2013-04-08 14:04:00,77.7,30.9,28.32,SSE,151,4.9,4.9,18,0.00,,---,0.00,VWS V14.01,2013-04-08 19:04:00,
2013-04-08 14:06:00,77.7,30.9,28.32,SE,126,8.3,12.3,18,0.00,,---,0.00,VWS V14.01,2013-04-08 19:06:00,
2013-04-08 14:08:00,78.1,31.2,28.32,South,174,10.1,10.1,18,0.00,,---,0.00,VWS V14.01,2013-04-08 19:08:00,
2013-04-08 14:09:00,78.1,31.2,28.32,SW,216,7.6,7.6,18,0.00,,---,0.00,VWS V14.01,2013-04-08 19:09:00,
2013-04-08 14:12:00,78.1,31.2,28.32,SSE,149,8.3,8.3,18,0.00,,---,0.00,VWS V14.01,2013-04-08 19:12:00,
2013-04-08 14:13:00,78.3,31.3,28.32,SSE,149,8.3,8.3,18,0.00,,---,0.00,VWS V14.01,2013-04-08 19:13:00,
2013-04-08 14:15:00,78.3,33.9,28.32,SSW,194,3.1,3.1,20,0.00,,---,0.00,VWS V14.01,2013-04-08 19:15:00,
2013-04-08 14:17:00,78.4,34.1,28.32,SE,144,4.0,4.0,20,0.00,,---,0.00,VWS V14.01,2013-04-08 19:17:00,
2013-04-08 14:18:00,78.4,34.1,28.32,SE,144,4.0,4.0,20,0.00,,---,0.00,VWS V14.01,2013-04-08 19:18:00,
2013-04-08 14:20:00,78.4,34.1,28.32,SW,223,8.3,8.3,20,0.00,,---,0.00,VWS V14.01,2013-04-08 19:20:00,
2013-04-08 14:21:00,78.4,34.1,28.32,SSE,153,7.6,8.3,20,0.00,,---,0.00,VWS V14.01,2013-04-08 19:21:00,
2013-04-08 14:22:00,78.3,33.9,28.32,SSE,148,8.1,8.1,20,0.00,,---,0.00,VWS V14.01,2013-04-08 19:22:00,
2013-04-08 14:23:00,78.3,33.9,28.32,SSE,158,6.3,8.1,20,0.00,,---,0.00,VWS V14.01,2013-04-08 19:23:00,
2013-04-08 14:25:00,77.7,30.9,28.32,South,178,8.1,8.1,18,0.00,,---,0.00,VWS V14.01,2013-04-08 19:25:00,
2013-04-08 14:27:00,77.7,30.9,28.29,SSE,154,8.1,8.1,18,0.00,,---,0.00,VWS V14.01,2013-04-08 19:27:00,
2013-04-08 14:28:00,77.7,30.9,28.29,SSE,163,6.3,6.3,18,0.00,,---,0.00,VWS V14.01,2013-04-08 19:28:00,
2013-04-08 14:30:00,77.5,30.7,28.29,SSE,155,5.8,5.8,18,0.00,,---,0.00,VWS V14.01,2013-04-08 19:30:00,
2013-04-08 14:32:00,77.2,30.4,28.29,SE,146,3.6,8.3,18,0.00,,---,0.00,VWS V14.01,2013-04-08 19:32:00,
2013-04-08 14:33:00,77.2,30.4,28.29,WSW,244,8.7,8.7,18,0.00,,---,0.00,VWS V14.01,2013-04-08 19:33:00,
2013-04-08 14:35:00,76.6,30.0,28.29,South,175,6.3,6.3,18,0.00,,---,0.00,VWS V14.01,2013-04-08 19:35:00,
2013-04-08 14:37:00,76.5,29.9,28.29,SSW,200,8.3,8.3,18,0.00,,---,0.00,VWS V14.01,2013-04-08 19:37:00,
2013-04-08 14:38:00,76.5,29.9,28.29,SW,228,3.6,3.6,18,0.00,,---,0.00,VWS V14.01,2013-04-08 19:38:00,
2013-04-08 14:40:00,76.6,32.6,28.32,SSE,157,4.0,4.0,20,0.00,,---,0.00,VWS V14.01,2013-04-08 19:40:00,
2013-04-08 14:42:00,76.6,32.6,28.32,West,259,7.6,7.6,20,0.00,,---,0.00,VWS V14.01,2013-04-08 19:42:00,
2013-04-08 14:43:00,76.6,32.6,28.32,West,259,7.6,7.6,20,0.00,,---,0.00,VWS V14.01,2013-04-08 19:43:00,
2013-04-08 14:45:00,76.6,30.0,28.32,South,182,7.6,7.6,18,0.00,,---,0.00,VWS V14.01,2013-04-08 19:45:00,
2013-04-08 14:47:00,76.8,30.1,28.32,SSE,160,3.1,5.4,18,0.00,,---,0.00,VWS V14.01,2013-04-08 19:47:00,
2013-04-08 14:48:00,76.8,30.1,28.32,NE,39,3.6,3.6,18,0.00,,---,0.00,VWS V14.01,2013-04-08 19:48:00,
2013-04-08 14:50:00,77.0,30.3,28.32,WSW,258,3.1,3.1,18,0.00,,---,0.00,VWS V14.01,2013-04-08 19:50:00,
2013-04-08 14:52:00,77.0,30.3,28.32,NW,314,3.6,5.8,18,0.00,,---,0.00,VWS V14.01,2013-04-08 19:52:00,
2013-04-08 14:53:00,77.0,30.3,28.32,South,176,12.8,12.8,18,0.00,,---,0.00,VWS V14.01,2013-04-08 19:53:00,
2013-04-08 14:54:00,77.0,30.3,28.32,South,176,12.8,12.8,18,0.00,,---,0.00,VWS V14.01,2013-04-08 19:54:00,
2013-04-08 14:55:00,77.0,30.3,28.32,South,183,5.4,12.8,18,0.00,,---,0.00,VWS V14.01,2013-04-08 19:55:00,
2013-04-08 14:58:00,77.0,30.3,28.32,South,176,10.1,11.0,18,0.00,,---,0.00,VWS V14.01,2013-04-08 19:58:00,
2013-04-08 14:59:00,77.0,30.3,28.32,SSE,164,7.6,7.6,18,0.00,,---,0.00,VWS V14.01,2013-04-08 19:59:00,
2013-04-08 15:01:00,76.8,30.1,28.32,South,180,6.3,6.3,18,0.00,,---,0.00,VWS V14.01,2013-04-08 20:01:00,
2013-04-08 15:03:00,76.5,29.9,28.32,SSE,167,7.6,7.6,18,0.00,,---,0.00,VWS V14.01,2013-04-08 20:03:00,
2013-04-08 15:04:00,76.5,29.9,28.32,WNW,293,8.1,8.1,18,0.00,,---,0.00,VWS V14.01,2013-04-08 20:04:00,
2013-04-08 15:06:00,76.5,29.9,28.32,West,265,6.3,6.3,18,0.00,,---,0.00,VWS V14.01,2013-04-08 20:06:00,
2013-04-08 15:08:00,76.6,30.0,28.32,South,180,3.6,5.8,18,0.00,,---,0.00,VWS V14.01,2013-04-08 20:08:00,
2013-04-08 15:09:00,76.8,30.1,28.32,South,180,7.2,7.2,18,0.00,,---,0.00,VWS V14.01,2013-04-08 20:09:00,
2013-04-08 15:11:00,77.0,30.3,28.32,South,174,3.1,3.1,18,0.00,,---,0.00,VWS V14.01,2013-04-08 20:11:00,
2013-04-08 15:13:00,76.8,30.1,28.32,South,171,7.6,8.7,18,0.00,,---,0.00,VWS V14.01,2013-04-08 20:13:00,
2013-04-08 15:14:00,76.6,30.0,28.32,South,181,10.1,10.1,18,0.00,,---,0.00,VWS V14.01,2013-04-08 20:14:00,
2013-04-08 15:16:00,76.6,30.0,28.32,South,174,7.2,8.7,18,0.00,,---,0.00,VWS V14.01,2013-04-08 20:16:00,
2013-04-08 15:18:00,76.3,29.7,28.32,South,171,7.6,7.6,18,0.00,,---,0.00,VWS V14.01,2013-04-08 20:18:00,
2013-04-08 15:19:00,76.3,29.7,28.32,South,171,7.6,7.6,18,0.00,,---,0.00,VWS V14.01,2013-04-08 20:19:00,
2013-04-08 15:22:00,76.3,29.7,28.32,SSE,162,8.7,8.7,18,0.00,,---,0.00,VWS V14.01,2013-04-08 20:22:00,
2013-04-08 15:23:00,76.3,32.3,28.32,South,173,3.1,8.7,20,0.00,,---,0.00,VWS V14.01,2013-04-08 20:23:00,
2013-04-08 15:24:00,76.5,32.5,28.32,South,173,3.1,3.1,20,0.00,,---,0.00,VWS V14.01,2013-04-08 20:24:00,
2013-04-08 15:25:00,76.6,32.6,28.32,South,173,3.1,3.1,20,0.00,,---,0.00,VWS V14.01,2013-04-08 20:25:00,
2013-04-08 15:27:00,76.6,30.0,28.32,East,97,8.1,10.1,18,0.00,,---,0.00,VWS V14.01,2013-04-08 20:27:00,
2013-04-08 15:28:00,76.6,30.0,28.32,SE,138,6.3,10.5,18,0.00,,---,0.00,VWS V14.01,2013-04-08 20:28:00,
2013-04-08 15:29:00,76.8,30.1,28.32,SSE,157,10.5,10.5,18,0.00,,---,0.00,VWS V14.01,2013-04-08 20:29:00,
2013-04-08 15:30:00,76.6,30.0,28.32,SSE,157,10.5,10.5,18,0.00,,---,0.00,VWS V14.01,2013-04-08 20:30:00,
2013-04-08 15:32:00,76.6,30.0,28.29,SSE,159,8.3,8.3,18,0.00,,---,0.00,VWS V14.01,2013-04-08 20:32:00,
2013-04-08 15:33:00,76.6,30.0,28.29,South,178,5.8,8.7,18,0.00,,---,0.00,VWS V14.01,2013-04-08 20:33:00,
2013-04-08 15:34:00,76.5,32.5,28.29,South,183,8.7,8.7,20,0.00,,---,0.00,VWS V14.01,2013-04-08 20:34:00,
2013-04-08 15:35:00,76.5,32.5,28.29,South,183,8.7,8.7,20,0.00,,---,0.00,VWS V14.01,2013-04-08 20:35:00,
2013-04-08 15:37:00,76.5,29.9,28.29,SE,141,8.7,8.7,18,0.00,,---,0.00,VWS V14.01,2013-04-08 20:37:00,
2013-04-08 15:38:00,76.5,29.9,28.29,SE,141,8.7,8.7,18,0.00,,---,0.00,VWS V14.01,2013-04-08 20:38:00,
2013-04-08 15:40:00,76.1,29.6,28.29,South,182,4.0,4.0,18,0.00,,---,0.00,VWS V14.01,2013-04-08 20:40:00,
2013-04-08 15:42:00,75.9,29.4,28.29,South,175,5.8,8.7,18,0.00,,---,0.00,VWS V14.01,2013-04-08 20:42:00,
2013-04-08 15:43:00,75.9,29.4,28.29,SSE,157,7.6,7.6,18,0.00,,---,0.00,VWS V14.01,2013-04-08 20:43:00,
2013-04-08 15:45:00,76.1,29.6,28.29,SSW,192,8.7,8.7,18,0.00,,---,0.00,VWS V14.01,2013-04-08 20:45:00,
2013-04-08 15:47:00,76.1,29.6,28.29,South,184,6.3,6.3,18,0.00,,---,0.00,VWS V14.01,2013-04-08 20:47:00,
2013-04-08 15:48:00,76.1,29.6,28.29,South,184,6.3,6.3,18,0.00,,---,0.00,VWS V14.01,2013-04-08 20:48:00,
2013-04-08 15:50:00,76.3,29.7,28.29,South,174,6.3,6.3,18,0.00,,---,0.00,VWS V14.01,2013-04-08 20:50:00,
2013-04-08 15:52:00,76.3,29.7,28.29,WNW,288,7.2,7.2,18,0.00,,---,0.00,VWS V14.01,2013-04-08 20:52:00,
2013-04-08 15:53:00,76.1,29.6,28.29,SE,125,10.5,10.5,18,0.00,,---,0.00,VWS V14.01,2013-04-08 20:53:00,
2013-04-08 15:55:00,76.1,29.6,28.29,SSE,163,10.1,10.1,18,0.00,,---,0.00,VWS V14.01,2013-04-08 20:55:00,
2013-04-08 15:57:00,75.7,31.9,28.29,South,181,4.0,4.0,20,0.00,,---,0.00,VWS V14.01,2013-04-08 20:57:00,
2013-04-08 15:58:00,75.7,31.9,28.29,South,176,6.3,6.3,20,0.00,,---,0.00,VWS V14.01,2013-04-08 20:58:00,
2013-04-08 16:00:00,75.9,32.0,28.29,South,177,5.4,10.5,20,0.00,,---,0.00,VWS V14.01,2013-04-08 21:00:00,
2013-04-08 16:02:00,75.9,32.0,28.29,South,177,12.8,12.8,20,0.00,,---,0.00,VWS V14.01,2013-04-08 21:02:00,
2013-04-08 16:03:00,75.9,32.0,28.29,SSW,194,4.0,12.8,20,0.00,,---,0.00,VWS V14.01,2013-04-08 21:03:00,
2013-04-08 16:05:00,75.9,29.4,28.29,SE,137,6.3,6.3,18,0.00,,---,0.00,VWS V14.01,2013-04-08 21:05:00,
2013-04-08 16:06:00,75.9,29.4,28.29,SE,137,6.3,6.3,18,0.00,,---,0.00,VWS V14.01,2013-04-08 21:06:00,
2013-04-08 16:07:00,75.7,29.3,28.29,SSE,160,5.8,8.1,18,0.00,,---,0.00,VWS V14.01,2013-04-08 21:07:00,
2013-04-08 16:08:00,75.6,29.1,28.29,SSE,160,5.8,5.8,18,0.00,,---,0.00,VWS V14.01,2013-04-08 21:08:00,
2013-04-08 16:10:00,75.6,31.7,28.29,SSE,149,4.0,5.8,20,0.00,,---,0.00,VWS V14.01,2013-04-08 21:10:00,
2013-04-08 16:11:00,75.6,31.7,28.29,SSE,152,10.1,10.1,20,0.00,,---,0.00,VWS V14.01,2013-04-08 21:11:00,
2013-04-08 16:12:00,75.6,31.7,28.29,SSE,152,6.3,6.3,20,0.00,,---,0.00,VWS V14.01,2013-04-08 21:12:00,
2013-04-08 16:14:00,75.4,29.0,28.29,SSE,163,6.7,6.7,18,0.00,,---,0.00,VWS V14.01,2013-04-08 21:14:00,
2013-04-08 16:15:00,75.4,29.0,28.29,South,178,7.2,7.2,18,0.00,,---,0.00,VWS V14.01,2013-04-08 21:15:00,
2013-04-08 16:16:00,75.6,29.1,28.29,South,178,7.2,7.2,18,0.00,,---,0.00,VWS V14.01,2013-04-08 21:16:00,
2013-04-08 16:17:00,75.6,29.1,28.29,South,188,5.4,6.3,18,0.00,,---,0.00,VWS V14.01,2013-04-08 21:17:00,
2013-04-08 16:19:00,75.4,29.0,28.29,WSW,244,2.7,5.4,18,0.00,,---,0.00,VWS V14.01,2013-04-08 21:19:00,
2013-04-08 16:20:00,75.4,29.0,28.29,SSE,167,8.7,8.7,18,0.00,,---,0.00,VWS V14.01,2013-04-08 21:20:00,
2013-04-08 16:21:00,75.4,29.0,28.29,SW,236,8.7,8.7,18,0.00,,---,0.00,VWS V14.01,2013-04-08 21:21:00,
2013-04-08 16:22:00,75.4,29.0,28.29,South,172,11.0,11.0,18,0.00,,---,0.00,VWS V14.01,2013-04-08 21:22:00,
2013-04-08 16:25:00,75.4,29.0,28.29,South,178,5.8,7.6,18,0.00,,---,0.00,VWS V14.01,2013-04-08 21:25:00,
2013-04-08 16:27:00,75.4,31.6,28.29,SSE,157,6.3,6.3,20,0.00,,---,0.00,VWS V14.01,2013-04-08 21:27:00,
2013-04-08 16:30:00,75.4,31.6,28.29,South,169,11.0,11.0,20,0.00,,---,0.00,VWS V14.01,2013-04-08 21:30:00,
2013-04-08 16:31:00,75.4,29.0,28.29,SSE,152,7.6,8.1,18,0.00,,---,0.00,VWS V14.01,2013-04-08 21:31:00,
2013-04-08 16:32:00,75.4,29.0,28.29,SSE,152,7.6,7.6,18,0.00,,---,0.00,VWS V14.01,2013-04-08 21:32:00,
2013-04-08 16:35:00,75.4,29.0,28.29,SSE,168,9.2,9.2,18,0.00,,---,0.00,VWS V14.01,2013-04-08 21:35:00,
2013-04-08 16:37:00,75.0,32.5,28.29,SSE,160,5.4,9.2,21,0.00,,---,0.00,VWS V14.01,2013-04-08 21:37:00,
2013-04-08 16:40:00,75.0,32.5,28.29,SSE,161,5.8,5.8,21,0.00,,---,0.00,VWS V14.01,2013-04-08 21:40:00,
2013-04-08 16:42:00,75.0,32.5,28.29,South,187,6.3,6.3,21,0.00,,---,0.00,VWS V14.01,2013-04-08 21:42:00,
2013-04-08 16:43:00,74.7,32.2,28.29,South,187,6.3,6.3,21,0.00,,---,0.00,VWS V14.01,2013-04-08 21:43:00,
2013-04-08 16:45:00,74.7,32.2,28.29,South,173,8.7,8.7,21,0.00,,---,0.00,VWS V14.01,2013-04-08 21:45:00,
2013-04-08 16:47:00,74.7,32.2,28.29,South,187,8.1,8.1,21,0.00,,---,0.00,VWS V14.01,2013-04-08 21:47:00,
2013-04-08 16:48:00,74.7,32.2,28.29,West,278,4.0,8.1,21,0.00,,---,0.00,VWS V14.01,2013-04-08 21:48:00,
2013-04-08 16:50:00,74.7,32.2,28.29,SSW,195,5.4,5.4,21,0.00,,---,0.00,VWS V14.01,2013-04-08 21:50:00,
2013-04-08 16:52:00,74.5,32.0,28.29,SSE,159,5.8,5.8,21,0.00,,---,0.00,VWS V14.01,2013-04-08 21:52:00,
2013-04-08 16:53:00,74.5,32.0,28.29,WSW,258,2.7,5.8,21,0.00,,---,0.00,VWS V14.01,2013-04-08 21:53:00,
2013-04-08 16:55:00,74.3,31.9,28.29,South,178,4.0,4.0,21,0.00,,---,0.00,VWS V14.01,2013-04-08 21:55:00,
2013-04-08 16:58:00,74.3,31.9,28.29,SSE,158,3.6,3.6,21,0.00,,---,0.00,VWS V14.01,2013-04-08 21:58:00,
2013-04-08 17:00:00,74.1,31.7,28.29,SSE,165,5.8,5.8,21,0.00,,---,0.00,VWS V14.01,2013-04-08 22:00:00,
2013-04-08 17:03:00,73.9,31.6,28.29,SSE,167,6.3,6.3,21,0.00,,---,0.00,VWS V14.01,2013-04-08 22:03:00,
2013-04-08 17:05:00,73.9,31.6,28.29,South,170,5.4,6.3,21,0.00,,---,0.00,VWS V14.01,2013-04-08 22:05:00,
2013-04-08 17:08:00,73.8,31.4,28.29,SSE,162,6.7,6.7,21,0.00,,---,0.00,VWS V14.01,2013-04-08 22:08:00,
2013-04-08 17:09:00,73.8,31.4,28.29,SE,146,3.6,3.6,21,0.00,,---,0.00,VWS V14.01,2013-04-08 22:09:00,
2013-04-08 17:10:00,73.6,31.3,28.29,South,172,8.1,8.1,21,0.00,,---,0.00,VWS V14.01,2013-04-08 22:10:00,
2013-04-08 17:13:00,73.6,31.3,28.29,SSE,167,3.1,4.0,21,0.00,,---,0.00,VWS V14.01,2013-04-08 22:13:00,
2013-04-08 17:14:00,73.6,31.3,28.29,South,188,0.0,3.1,21,0.00,,---,0.00,VWS V14.01,2013-04-08 22:14:00,
2013-04-08 17:15:00,73.6,31.3,28.29,South,188,0.0,0.0,21,0.00,,---,0.00,VWS V14.01,2013-04-08 22:15:00,
2013-04-08 17:18:00,73.6,31.3,28.29,SE,145,3.1,4.0,21,0.00,,---,0.00,VWS V14.01,2013-04-08 22:18:00,
2013-04-08 17:20:00,73.4,31.1,28.29,SSE,162,3.1,3.1,21,0.00,,---,0.00,VWS V14.01,2013-04-08 22:20:00,
2013-04-08 17:21:00,73.4,31.1,28.29,South,181,7.2,7.2,21,0.00,,---,0.00,VWS V14.01,2013-04-08 22:21:00,
2013-04-08 17:23:00,73.4,31.1,28.29,SSE,152,5.8,5.8,21,0.00,,---,0.00,VWS V14.01,2013-04-08 22:23:00,
2013-04-08 17:25:00,73.4,31.1,28.29,South,173,5.4,5.4,21,0.00,,---,0.00,VWS V14.01,2013-04-08 22:25:00,
2013-04-08 17:26:00,73.2,31.0,28.29,South,184,4.0,8.7,21,0.00,,---,0.00,VWS V14.01,2013-04-08 22:26:00,
2013-04-08 17:29:00,73.2,32.1,28.29,South,169,6.3,6.3,22,0.00,,---,0.00,VWS V14.01,2013-04-08 22:29:00,
2013-04-08 17:30:00,73.0,30.8,28.29,SSE,167,6.3,10.1,21,0.00,,---,0.00,VWS V14.01,2013-04-08 22:30:00,
2013-04-08 17:32:00,73.0,30.8,28.29,ESE,120,5.4,5.8,21,0.00,,---,0.00,VWS V14.01,2013-04-08 22:32:00,
2013-04-08 17:34:00,73.2,32.1,28.29,South,171,5.8,5.8,22,0.00,,---,0.00,VWS V14.01,2013-04-08 22:34:00,
2013-04-08 17:35:00,73.2,32.1,28.29,South,179,7.6,7.6,22,0.00,,---,0.00,VWS V14.01,2013-04-08 22:35:00,
2013-04-08 17:37:00,73.2,32.1,28.29,SSE,150,8.7,8.7,22,0.00,,---,0.00,VWS V14.01,2013-04-08 22:37:00,
2013-04-08 17:39:00,73.2,32.1,28.26,SSE,160,3.6,8.1,22,0.00,,---,0.00,VWS V14.01,2013-04-08 22:39:00,
2013-04-08 17:40:00,73.2,32.1,28.26,SSE,153,3.6,3.6,22,0.00,,---,0.00,VWS V14.01,2013-04-08 22:40:00,
2013-04-08 17:42:00,73.2,32.1,28.26,SSE,150,5.8,5.8,22,0.00,,---,0.00,VWS V14.01,2013-04-08 22:42:00,
2013-04-08 17:44:00,73.2,32.1,28.26,SE,142,8.3,8.3,22,0.00,,---,0.00,VWS V14.01,2013-04-08 22:44:00,
2013-04-08 17:45:00,73.2,32.1,28.26,SE,140,5.8,5.8,22,0.00,,---,0.00,VWS V14.01,2013-04-08 22:45:00,
2013-04-08 17:47:00,73.2,32.1,28.26,South,189,8.1,8.1,22,0.00,,---,0.00,VWS V14.01,2013-04-08 22:47:00,
2013-04-08 17:50:00,73.2,32.1,28.26,ESE,123,3.1,6.3,22,0.00,,---,0.00,VWS V14.01,2013-04-08 22:50:00,
2013-04-08 17:51:00,73.0,32.0,28.26,South,173,5.4,6.3,22,0.00,,---,0.00,VWS V14.01,2013-04-08 22:51:00,
2013-04-08 17:52:00,73.0,32.0,28.26,South,184,3.1,5.8,22,0.00,,---,0.00,VWS V14.01,2013-04-08 22:52:00,
2013-04-08 17:55:00,73.0,32.0,28.29,SSE,155,5.8,5.8,22,0.00,,---,0.00,VWS V14.01,2013-04-08 22:55:00,
2013-04-08 17:56:00,73.0,32.0,28.29,East,82,3.6,6.3,22,0.00,,---,0.00,VWS V14.01,2013-04-08 22:56:00,
2013-04-08 17:57:00,73.0,32.0,28.29,SSE,163,3.6,4.0,22,0.00,,---,0.00,VWS V14.01,2013-04-08 22:57:00,
2013-04-08 18:00:00,73.0,32.0,28.29,South,170,3.1,8.3,22,0.00,,---,0.00,VWS V14.01,2013-04-08 23:00:00,
2013-04-08 18:01:00,73.0,32.0,28.29,South,170,3.1,3.1,22,0.00,,---,0.00,VWS V14.01,2013-04-08 23:01:00,
2013-04-08 18:02:00,73.0,32.0,28.29,South,186,5.4,5.4,22,0.00,,---,0.00,VWS V14.01,2013-04-08 23:02:00,
2013-04-08 18:05:00,72.9,31.8,28.29,SSE,157,8.3,8.3,22,0.00,,---,0.00,VWS V14.01,2013-04-08 23:05:00,
2013-04-08 18:06:00,72.9,31.8,28.29,SSE,166,2.7,8.3,22,0.00,,---,0.00,VWS V14.01,2013-04-08 23:06:00,
2013-04-08 18:07:00,72.9,31.8,28.29,ESE,112,3.1,3.1,22,0.00,,---,0.00,VWS V14.01,2013-04-08 23:07:00,
2013-04-08 18:10:00,72.9,31.8,28.29,South,188,7.2,7.2,22,0.00,,---,0.00,VWS V14.01,2013-04-08 23:10:00,
2013-04-08 18:11:00,72.9,31.8,28.29,SE,146,4.0,7.2,22,0.00,,---,0.00,VWS V14.01,2013-04-08 23:11:00,
2013-04-08 18:13:00,72.9,31.8,28.29,SE,139,3.6,3.6,22,0.00,,---,0.00,VWS V14.01,2013-04-08 23:13:00,
2013-04-08 18:15:00,72.9,31.8,28.29,SSE,162,4.9,4.9,22,0.00,,---,0.00,VWS V14.01,2013-04-08 23:15:00,
2013-04-08 18:16:00,72.7,31.7,28.29,South,176,4.0,4.0,22,0.00,,---,0.00,VWS V14.01,2013-04-08 23:16:00,
2013-04-08 18:18:00,72.7,31.7,28.29,South,180,3.1,3.6,22,0.00,,---,0.00,VWS V14.01,2013-04-08 23:18:00,
2013-04-08 18:21:00,72.5,31.5,28.29,South,182,2.7,2.7,22,0.00,,---,0.00,VWS V14.01,2013-04-08 23:21:00,
2013-04-08 18:22:00,72.5,31.5,28.29,SSE,166,3.6,3.6,22,0.00,,---,0.00,VWS V14.01,2013-04-08 23:22:00,
2013-04-08 18:23:00,72.3,31.4,28.29,South,172,5.4,5.4,22,0.00,,---,0.00,VWS V14.01,2013-04-08 23:23:00,
2013-04-08 18:24:00,72.3,31.4,28.29,SSE,164,3.1,5.4,22,0.00,,---,0.00,VWS V14.01,2013-04-08 23:24:00,
2013-04-08 18:26:00,72.3,31.4,28.29,SSE,162,2.7,2.7,22,0.00,,---,0.00,VWS V14.01,2013-04-08 23:26:00,
2013-04-08 18:27:00,72.1,31.2,28.29,SSW,198,0.0,0.0,22,0.00,,---,0.00,VWS V14.01,2013-04-08 23:27:00,
2013-04-08 18:29:00,72.1,31.2,28.29,East,94,2.7,3.1,22,0.00,,---,0.00,VWS V14.01,2013-04-08 23:29:00,
2013-04-08 18:31:00,72.1,31.2,28.29,South,177,5.8,8.7,22,0.00,,---,0.00,VWS V14.01,2013-04-08 23:31:00,
2013-04-08 18:32:00,72.1,31.2,28.29,West,274,3.6,5.4,22,0.00,,---,0.00,VWS V14.01,2013-04-08 23:32:00,
2013-04-08 18:34:00,72.0,31.1,28.29,South,171,3.1,4.9,22,0.00,,---,0.00,VWS V14.01,2013-04-08 23:34:00,
2013-04-08 18:36:00,72.0,31.1,28.29,SE,142,5.4,5.4,22,0.00,,---,0.00,VWS V14.01,2013-04-08 23:36:00,
2013-04-08 18:37:00,72.0,31.1,28.29,SSE,168,3.6,5.4,22,0.00,,---,0.00,VWS V14.01,2013-04-08 23:37:00,
2013-04-08 18:39:00,72.0,31.1,28.29,SE,146,5.4,5.8,22,0.00,,---,0.00,VWS V14.01,2013-04-08 23:39:00,
2013-04-08 18:41:00,71.8,30.9,28.26,SE,146,5.8,5.8,22,0.00,,---,0.00,VWS V14.01,2013-04-08 23:41:00,
2013-04-08 18:42:00,71.8,30.9,28.26,SSE,159,5.4,5.8,22,0.00,,---,0.00,VWS V14.01,2013-04-08 23:42:00,
2013-04-08 18:45:00,71.8,30.9,28.26,West,264,8.1,8.1,22,0.00,,---,0.00,VWS V14.01,2013-04-08 23:45:00,
2013-04-08 18:46:00,71.8,30.9,28.26,SSE,147,5.4,8.1,22,0.00,,---,0.00,VWS V14.01,2013-04-08 23:46:00,
2013-04-08 18:47:00,71.8,30.9,28.26,SSE,167,6.3,6.3,22,0.00,,---,0.00,VWS V14.01,2013-04-08 23:47:00,
2013-04-08 18:50:00,71.8,30.9,28.26,South,175,4.9,4.9,22,0.00,,---,0.00,VWS V14.01,2013-04-08 23:50:00,
2013-04-08 18:52:00,71.6,30.8,28.26,SSE,152,5.8,8.7,22,0.00,,---,0.00,VWS V14.01,2013-04-08 23:52:00,
2013-04-08 18:55:00,71.6,30.8,28.26,SSE,164,4.0,4.9,22,0.00,,---,0.00,VWS V14.01,2013-04-08 23:55:00,
2013-04-08 18:57:00,71.4,30.6,28.26,SSE,163,3.1,4.0,22,0.00,,---,0.00,VWS V14.01,2013-04-08 23:57:00,
2013-04-08 18:58:00,71.4,30.6,28.26,SSE,162,3.6,3.6,22,0.00,,---,0.00,VWS V14.01,2013-04-08 23:58:00,
2013-04-08 19:00:00,71.2,30.5,28.26,South,169,3.6,5.4,22,0.00,,---,0.00,VWS V14.01,2013-04-09 00:00:00,
2013-04-08 19:02:00,71.2,31.6,28.26,SSE,159,4.0,5.8,23,0.00,,---,0.00,VWS V14.01,2013-04-09 00:02:00,
2013-04-08 19:03:00,71.1,31.4,28.26,South,175,4.0,4.0,23,0.00,,---,0.00,VWS V14.01,2013-04-09 00:03:00,
2013-04-08 19:05:00,71.1,31.4,28.26,SSE,157,3.1,4.0,23,0.00,,---,0.00,VWS V14.01,2013-04-09 00:05:00,
2013-04-08 19:07:00,70.9,31.3,28.26,SSE,155,2.7,2.7,23,0.00,,---,0.00,VWS V14.01,2013-04-09 00:07:00,
2013-04-08 19:09:00,70.9,31.3,28.26,SSE,149,4.0,4.9,23,0.00,,---,0.00,VWS V14.01,2013-04-09 00:09:00,
2013-04-08 19:10:00,70.7,31.1,28.29,SSE,154,3.6,3.6,23,0.00,,---,0.00,VWS V14.01,2013-04-09 00:10:00,
2013-04-08 19:13:00,70.5,31.0,28.29,SSE,164,3.6,3.6,23,0.00,,---,0.00,VWS V14.01,2013-04-09 00:13:00,
2013-04-08 19:14:00,70.5,31.0,28.29,SSE,164,3.6,3.6,23,0.00,,---,0.00,VWS V14.01,2013-04-09 00:14:00,
2013-04-08 19:15:00,70.5,31.0,28.29,SSE,163,5.4,5.4,23,0.00,,---,0.00,VWS V14.01,2013-04-09 00:15:00,
2013-04-08 19:16:00,70.5,31.0,28.29,SSE,163,5.4,5.4,23,0.00,,---,0.00,VWS V14.01,2013-04-09 00:16:00,
2013-04-08 19:18:00,70.3,30.8,28.29,SSE,156,4.0,4.9,23,0.00,,---,0.00,VWS V14.01,2013-04-09 00:18:00,
2013-04-08 19:19:00,70.3,30.8,28.29,SSE,156,2.7,3.6,23,0.00,,---,0.00,VWS V14.01,2013-04-09 00:19:00,
2013-04-08 19:20:00,70.3,30.8,28.29,SSE,157,4.0,4.0,23,0.00,,---,0.00,VWS V14.01,2013-04-09 00:20:00,
2013-04-08 19:21:00,70.3,30.8,28.29,South,169,2.7,4.0,23,0.00,,---,0.00,VWS V14.01,2013-04-09 00:21:00,
2013-04-08 19:23:00,70.2,30.7,28.29,SSE,151,2.7,3.6,23,0.00,,---,0.00,VWS V14.01,2013-04-09 00:23:00,
2013-04-08 19:24:00,70.2,30.7,28.29,SSE,151,2.2,2.7,23,0.00,,---,0.00,VWS V14.01,2013-04-09 00:24:00,
2013-04-08 19:25:00,70.2,30.7,28.29,SSE,151,2.2,2.2,23,0.00,,---,0.00,VWS V14.01,2013-04-09 00:25:00,
2013-04-08 19:26:00,70.0,30.5,28.29,SSE,151,2.7,2.7,23,0.00,,---,0.00,VWS V14.01,2013-04-09 00:26:00,
2013-04-08 19:29:00,70.0,30.5,28.29,SSE,151,3.6,3.6,23,0.00,,---,0.00,VWS V14.01,2013-04-09 00:29:00,
2013-04-08 19:30:00,69.8,30.4,28.29,SSE,151,3.1,3.1,23,0.00,,---,0.00,VWS V14.01,2013-04-09 00:30:00,
2013-04-08 19:31:00,69.6,30.2,28.29,SSE,151,2.2,2.7,23,0.00,,---,0.00,VWS V14.01,2013-04-09 00:31:00,
2013-04-08 19:32:00,69.6,30.2,28.29,SSE,151,3.6,3.6,23,0.00,,---,0.00,VWS V14.01,2013-04-09 00:32:00,
2013-04-08 19:34:00,69.6,30.2,28.29,SSE,161,2.7,3.6,23,0.00,,---,0.00,VWS V14.01,2013-04-09 00:34:00,
2013-04-08 19:35:00,69.6,30.2,28.29,SSE,161,3.1,3.1,23,0.00,,---,0.00,VWS V14.01,2013-04-09 00:35:00,
2013-04-08 19:36:00,69.4,31.1,28.29,South,170,3.1,3.6,24,0.00,,---,0.00,VWS V14.01,2013-04-09 00:36:00,
2013-04-08 19:37:00,69.4,31.1,28.29,South,170,3.1,3.1,24,0.00,,---,0.00,VWS V14.01,2013-04-09 00:37:00,
2013-04-08 19:39:00,69.3,31.0,28.29,SSE,163,2.7,4.0,24,0.00,,---,0.00,VWS V14.01,2013-04-09 00:39:00,
2013-04-08 19:40:00,69.3,31.0,28.29,SSE,163,2.7,2.7,24,0.00,,---,0.00,VWS V14.01,2013-04-09 00:40:00,
2013-04-08 19:42:00,69.3,31.0,28.29,South,173,3.6,3.6,24,0.00,,---,0.00,VWS V14.01,2013-04-09 00:42:00,
2013-04-08 19:45:00,69.1,30.8,28.29,South,172,2.7,5.4,24,0.00,,---,0.00,VWS V14.01,2013-04-09 00:45:00,
2013-04-08 19:47:00,69.1,30.8,28.29,South,169,3.6,4.0,24,0.00,,---,0.00,VWS V14.01,2013-04-09 00:47:00,
2013-04-08 19:50:00,69.1,30.8,28.29,South,172,3.6,3.6,24,0.00,,---,0.00,VWS V14.01,2013-04-09 00:50:00,
2013-04-08 19:52:00,68.9,30.6,28.29,South,172,3.1,3.6,24,0.00,,---,0.00,VWS V14.01,2013-04-09 00:52:00,
2013-04-08 19:55:00,68.9,30.6,28.29,South,172,3.6,3.6,24,0.00,,---,0.00,VWS V14.01,2013-04-09 00:55:00,
2013-04-08 19:57:00,68.7,30.5,28.29,SSE,165,4.0,5.4,24,0.00,,---,0.00,VWS V14.01,2013-04-09 00:57:00,
2013-04-08 20:00:00,68.7,30.5,28.29,SSE,165,2.7,2.7,24,0.00,,---,0.00,VWS V14.01,2013-04-09 01:00:00,
2013-04-08 20:03:00,68.5,31.4,28.29,SSE,165,2.7,2.7,25,0.00,,---,0.00,VWS V14.01,2013-04-09 01:03:00,
2013-04-08 20:05:00,68.5,31.4,28.29,South,171,3.6,5.8,25,0.00,,---,0.00,VWS V14.01,2013-04-09 01:05:00,
2013-04-08 20:08:00,68.4,31.2,28.29,SSE,166,3.6,3.6,25,0.00,,---,0.00,VWS V14.01,2013-04-09 01:08:00,
2013-04-08 20:10:00,68.4,31.2,28.29,South,173,4.0,4.9,25,0.00,,---,0.00,VWS V14.01,2013-04-09 01:10:00,
2013-04-08 20:13:00,68.2,31.0,28.29,SSE,158,4.0,5.4,25,0.00,,---,0.00,VWS V14.01,2013-04-09 01:13:00,
2013-04-08 20:15:00,68.2,31.0,28.29,SSE,158,4.9,4.9,25,0.00,,---,0.00,VWS V14.01,2013-04-09 01:15:00,
2013-04-08 20:18:00,68.0,31.9,28.29,SSE,168,4.0,5.4,26,0.00,,---,0.00,VWS V14.01,2013-04-09 01:18:00,
2013-04-08 20:20:00,68.0,31.9,28.29,South,178,3.1,4.0,26,0.00,,---,0.00,VWS V14.01,2013-04-09 01:20:00,
2013-04-08 20:23:00,68.0,31.9,28.29,SSE,167,4.9,4.9,26,0.00,,---,0.00,VWS V14.01,2013-04-09 01:23:00,
2013-04-08 20:24:00,68.0,31.9,28.26,SSE,167,4.9,4.9,26,0.00,,---,0.00,VWS V14.01,2013-04-09 01:24:00,
2013-04-08 20:25:00,68.0,31.9,28.26,SE,143,3.6,3.6,26,0.00,,---,0.00,VWS V14.01,2013-04-09 01:25:00,
2013-04-08 20:26:00,67.8,31.7,28.26,SSE,166,4.0,4.0,26,0.00,,---,0.00,VWS V14.01,2013-04-09 01:26:00,
2013-04-08 20:29:00,67.8,31.7,28.26,SSE,167,3.6,4.0,26,0.00,,---,0.00,VWS V14.01,2013-04-09 01:29:00,
2013-04-08 20:30:00,67.8,31.7,28.26,SSE,167,3.1,3.1,26,0.00,,---,0.00,VWS V14.01,2013-04-09 01:30:00,
2013-04-08 20:31:00,67.8,31.7,28.26,SSE,166,3.6,3.6,26,0.00,,---,0.00,VWS V14.01,2013-04-09 01:31:00,
2013-04-08 20:34:00,67.6,31.6,28.26,SSE,165,4.0,4.0,26,0.00,,---,0.00,VWS V14.01,2013-04-09 01:34:00,
2013-04-08 20:35:00,67.6,31.6,28.26,SSE,165,4.0,4.0,26,0.00,,---,0.00,VWS V14.01,2013-04-09 01:35:00,
2013-04-08 20:36:00,67.6,31.6,28.26,SSE,165,2.7,4.0,26,0.00,,---,0.00,VWS V14.01,2013-04-09 01:36:00,
2013-04-08 20:40:00,67.5,32.3,28.26,SSE,165,3.1,3.1,27,0.00,,---,0.00,VWS V14.01,2013-04-09 01:40:00,
2013-04-08 20:41:00,67.5,32.3,28.26,SSE,165,2.7,3.1,27,0.00,,---,0.00,VWS V14.01,2013-04-09 01:41:00,
2013-04-08 20:45:00,67.3,32.2,28.29,SSE,165,2.7,2.7,27,0.00,,---,0.00,VWS V14.01,2013-04-09 01:45:00,
2013-04-08 20:46:00,67.3,32.2,28.29,SSE,165,3.6,3.6,27,0.00,,---,0.00,VWS V14.01,2013-04-09 01:46:00,
2013-04-08 20:47:00,67.3,32.2,28.29,SSE,165,3.6,3.6,27,0.00,,---,0.00,VWS V14.01,2013-04-09 01:47:00,
2013-04-08 20:52:00,67.3,32.2,28.29,SSE,165,4.0,4.0,27,0.00,,---,0.00,VWS V14.01,2013-04-09 01:52:00,
2013-04-08 20:57:00,67.1,32.0,28.32,SSE,165,2.7,2.7,27,0.00,,---,0.00,VWS V14.01,2013-04-09 01:57:00,
2013-04-08 21:02:00,67.1,32.0,28.32,SSE,165,3.1,3.6,27,0.00,,---,0.00,VWS V14.01,2013-04-09 02:02:00,
2013-04-08 21:03:00,67.1,32.0,28.32,SSE,165,3.1,4.0,27,0.00,,---,0.00,VWS V14.01,2013-04-09 02:03:00,
2013-04-08 21:07:00,66.9,31.9,28.32,SSE,165,4.0,4.0,27,0.00,,---,0.00,VWS V14.01,2013-04-09 02:07:00,
2013-04-08 21:08:00,66.9,31.9,28.32,SSE,165,2.7,4.0,27,0.00,,---,0.00,VWS V14.01,2013-04-09 02:08:00,
2013-04-08 21:12:00,66.9,31.9,28.32,SSE,165,3.1,3.1,27,0.00,,---,0.00,VWS V14.01,2013-04-09 02:12:00,
2013-04-08 21:13:00,66.7,31.7,28.32,SSE,165,2.2,3.1,27,0.00,,---,0.00,VWS V14.01,2013-04-09 02:13:00,
2013-04-08 21:17:00,66.7,31.7,28.32,SSE,165,0.0,0.0,27,0.00,,---,0.00,VWS V14.01,2013-04-09 02:17:00,
2013-04-08 21:18:00,66.7,31.7,28.32,SSE,165,2.7,2.7,27,0.00,,---,0.00,VWS V14.01,2013-04-09 02:18:00,
2013-04-08 21:22:00,66.6,32.5,28.32,SSE,165,3.1,3.1,28,0.00,,---,0.00,VWS V14.01,2013-04-09 02:22:00,
2013-04-08 21:23:00,66.6,32.5,28.32,SSE,165,3.1,3.1,28,0.00,,---,0.00,VWS V14.01,2013-04-09 02:23:00,
2013-04-08 21:28:00,66.4,32.3,28.32,SSE,165,2.2,2.2,28,0.00,,---,0.00,VWS V14.01,2013-04-09 02:28:00,
2013-04-08 21:29:00,66.4,32.3,28.32,SSE,165,2.2,2.2,28,0.00,,---,0.00,VWS V14.01,2013-04-09 02:29:00,
2013-04-08 21:33:00,66.0,32.9,28.32,SSE,165,0.0,0.0,29,0.00,,---,0.00,VWS V14.01,2013-04-09 02:33:00,
2013-04-08 21:34:00,66.0,32.9,28.32,SSE,165,0.0,0.0,29,0.00,,---,0.00,VWS V14.01,2013-04-09 02:34:00,
2013-04-08 21:38:00,65.8,32.7,28.32,SSE,165,0.0,0.0,29,0.00,,---,0.00,VWS V14.01,2013-04-09 02:38:00,
2013-04-08 21:39:00,65.7,32.6,28.32,SSE,165,0.0,0.0,29,0.00,,---,0.00,VWS V14.01,2013-04-09 02:39:00,
2013-04-08 21:43:00,65.5,33.3,28.32,SSE,165,0.0,0.0,30,0.00,,---,0.00,VWS V14.01,2013-04-09 02:43:00,
2013-04-08 21:44:00,65.5,33.3,28.32,SSE,165,0.0,0.0,30,0.00,,---,0.00,VWS V14.01,2013-04-09 02:44:00,
2013-04-08 21:48:00,65.1,32.9,28.32,SSE,165,0.0,0.0,30,0.00,,---,0.00,VWS V14.01,2013-04-09 02:48:00,
2013-04-08 21:49:00,65.1,32.9,28.32,SSE,165,0.0,0.0,30,0.00,,---,0.00,VWS V14.01,2013-04-09 02:49:00,
2013-04-08 21:53:00,64.9,33.6,28.32,SSE,165,0.0,0.0,31,0.00,,---,0.00,VWS V14.01,2013-04-09 02:53:00,
2013-04-08 21:54:00,64.8,33.5,28.32,SSE,165,0.0,0.0,31,0.00,,---,0.00,VWS V14.01,2013-04-09 02:54:00,
2013-04-08 21:58:00,64.6,34.1,28.29,SSE,165,0.0,0.0,32,0.00,,---,0.00,VWS V14.01,2013-04-09 02:58:00,
2013-04-08 21:59:00,64.6,34.8,28.29,SSE,164,0.0,0.0,33,0.00,,---,0.00,VWS V14.01,2013-04-09 02:59:00,
2013-04-08 22:03:00,64.2,34.5,28.29,SSE,165,0.0,0.0,33,0.00,,---,0.00,VWS V14.01,2013-04-09 03:03:00,
2013-04-08 22:04:00,64.2,34.5,28.29,SSE,165,0.0,0.0,33,0.00,,---,0.00,VWS V14.01,2013-04-09 03:04:00,
2013-04-08 22:05:00,64.2,34.5,28.29,SSE,165,0.0,0.0,33,0.00,,---,0.00,VWS V14.01,2013-04-09 03:05:00,
2013-04-08 22:08:00,64.0,35.1,28.32,SSE,165,0.0,0.0,34,0.00,,---,0.00,VWS V14.01,2013-04-09 03:08:00,
2013-04-08 22:09:00,64.0,35.1,28.32,SSE,165,0.0,0.0,34,0.00,,---,0.00,VWS V14.01,2013-04-09 03:09:00,
2013-04-08 22:10:00,64.0,35.1,28.32,SSE,165,0.0,0.0,34,0.00,,---,0.00,VWS V14.01,2013-04-09 03:10:00,
2013-04-08 22:13:00,64.0,35.1,28.32,SSE,165,0.0,0.0,34,0.00,,---,0.00,VWS V14.01,2013-04-09 03:13:00,
2013-04-08 22:15:00,64.0,35.1,28.32,SSE,165,0.0,0.0,34,0.00,,---,0.00,VWS V14.01,2013-04-09 03:15:00,
2013-04-08 22:16:00,64.0,35.1,28.32,SSE,165,0.0,0.0,34,0.00,,---,0.00,VWS V14.01,2013-04-09 03:16:00,
2013-04-08 22:18:00,64.0,35.1,28.32,SSE,165,0.0,0.0,34,0.00,,---,0.00,VWS V14.01,2013-04-09 03:18:00,
2013-04-08 22:20:00,63.9,35.0,28.32,SSE,165,0.0,0.0,34,0.00,,---,0.00,VWS V14.01,2013-04-09 03:20:00,
2013-04-08 22:21:00,63.9,35.0,28.32,SSE,164,0.0,0.0,34,0.00,,---,0.00,VWS V14.01,2013-04-09 03:21:00,
2013-04-08 22:24:00,63.9,35.0,28.32,SSE,165,0.0,0.0,34,0.00,,---,0.00,VWS V14.01,2013-04-09 03:24:00,
2013-04-08 22:25:00,63.7,34.8,28.32,SSE,165,0.0,0.0,34,0.00,,---,0.00,VWS V14.01,2013-04-09 03:25:00,
2013-04-08 22:26:00,63.7,34.8,28.29,SSE,165,0.0,0.0,34,0.00,,---,0.00,VWS V14.01,2013-04-09 03:26:00,
2013-04-08 22:29:00,63.7,34.8,28.29,SSE,165,0.0,0.0,34,0.00,,---,0.00,VWS V14.01,2013-04-09 03:29:00,
2013-04-08 22:30:00,63.5,34.7,28.29,SSE,165,0.0,0.0,34,0.00,,---,0.00,VWS V14.01,2013-04-09 03:30:00,
2013-04-08 22:31:00,63.5,34.7,28.29,SSE,165,0.0,0.0,34,0.00,,---,0.00,VWS V14.01,2013-04-09 03:31:00,
2013-04-08 22:34:00,63.5,34.7,28.29,SSE,165,0.0,0.0,34,0.00,,---,0.00,VWS V14.01,2013-04-09 03:34:00,
2013-04-08 22:35:00,63.5,34.7,28.29,SSE,165,2.2,2.2,34,0.00,,---,0.00,VWS V14.01,2013-04-09 03:35:00,
2013-04-08 22:37:00,63.5,34.7,28.29,SSE,165,0.0,0.0,34,0.00,,---,0.00,VWS V14.01,2013-04-09 03:37:00,
2013-04-08 22:40:00,63.5,34.7,28.29,SSE,165,2.7,2.7,34,0.00,,---,0.00,VWS V14.01,2013-04-09 03:40:00,
2013-04-08 22:41:00,63.5,34.7,28.29,SSE,165,2.7,2.7,34,0.00,,---,0.00,VWS V14.01,2013-04-09 03:41:00,
2013-04-08 22:42:00,63.5,34.7,28.29,SSE,165,2.7,2.7,34,0.00,,---,0.00,VWS V14.01,2013-04-09 03:42:00,
2013-04-08 22:45:00,63.5,34.7,28.29,SSE,165,0.0,0.0,34,0.00,,---,0.00,VWS V14.01,2013-04-09 03:45:00,
2013-04-08 22:46:00,63.5,34.7,28.29,SSE,165,2.2,2.2,34,0.00,,---,0.00,VWS V14.01,2013-04-09 03:46:00,
2013-04-08 22:47:00,63.5,34.7,28.29,SSE,165,0.0,3.1,34,0.00,,---,0.00,VWS V14.01,2013-04-09 03:47:00,
2013-04-08 22:50:00,63.5,35.4,28.29,SSE,165,2.2,2.7,35,0.00,,---,0.00,VWS V14.01,2013-04-09 03:50:00,
2013-04-08 22:51:00,63.5,35.4,28.29,SSE,165,2.2,2.2,35,0.00,,---,0.00,VWS V14.01,2013-04-09 03:51:00,
2013-04-08 22:52:00,63.5,35.4,28.29,SSE,165,2.2,2.2,35,0.00,,---,0.00,VWS V14.01,2013-04-09 03:52:00,
2013-04-08 22:55:00,63.5,35.4,28.32,SSE,165,0.0,0.0,35,0.00,,---,0.00,VWS V14.01,2013-04-09 03:55:00,
2013-04-08 22:57:00,63.5,35.4,28.32,SSE,165,3.6,3.6,35,0.00,,---,0.00,VWS V14.01,2013-04-09 03:57:00,
2013-04-08 22:58:00,63.5,35.4,28.32,SSE,165,2.7,2.7,35,0.00,,---,0.00,VWS V14.01,2013-04-09 03:58:00,
2013-04-08 23:00:00,63.7,35.5,28.32,SSE,165,0.0,0.0,35,0.00,,---,0.00,VWS V14.01,2013-04-09 04:00:00,
2013-04-08 23:05:00,63.7,35.5,28.32,SSE,165,0.0,2.7,35,0.00,,---,0.00,VWS V14.01,2013-04-09 04:05:00,
2013-04-08 23:10:00,63.9,35.7,28.29,SSE,165,4.0,4.0,35,0.00,,---,0.00,VWS V14.01,2013-04-09 04:10:00,
2013-04-08 23:15:00,64.0,35.1,28.29,SSE,164,4.0,4.9,34,0.00,,---,0.00,VWS V14.01,2013-04-09 04:15:00,
2013-04-08 23:20:00,64.2,35.3,28.29,South,179,3.6,4.0,34,0.00,,---,0.00,VWS V14.01,2013-04-09 04:20:00,
2013-04-08 23:25:00,64.2,35.3,28.32,SSE,162,3.1,3.6,34,0.00,,---,0.00,VWS V14.01,2013-04-09 04:25:00,
2013-04-08 23:26:00,64.2,35.3,28.32,SSE,162,4.0,4.0,34,0.00,,---,0.00,VWS V14.01,2013-04-09 04:26:00,
2013-04-08 23:30:00,64.4,35.5,28.32,SSE,158,4.0,5.4,34,0.00,,---,0.00,VWS V14.01,2013-04-09 04:30:00,
2013-04-08 23:31:00,64.4,35.5,28.32,SSE,158,3.6,4.0,34,0.00,,---,0.00,VWS V14.01,2013-04-09 04:31:00,
2013-04-08 23:35:00,64.4,35.5,28.32,South,173,0.0,0.0,34,0.00,,---,0.00,VWS V14.01,2013-04-09 04:35:00,
2013-04-08 23:36:00,64.4,35.5,28.32,South,173,0.0,0.0,34,0.00,,---,0.00,VWS V14.01,2013-04-09 04:36:00,
2013-04-08 23:41:00,64.2,35.3,28.32,South,183,4.0,4.0,34,0.00,,---,0.00,VWS V14.01,2013-04-09 04:41:00,
2013-04-08 23:46:00,64.2,35.3,28.32,South,183,0.0,0.0,34,0.00,,---,0.00,VWS V14.01,2013-04-09 04:46:00,
2013-04-08 23:47:00,64.2,35.3,28.32,SSE,167,0.0,0.0,34,0.00,,---,0.00,VWS V14.01,2013-04-09 04:47:00,
2013-04-08 23:51:00,64.0,35.1,28.32,SSE,167,0.0,0.0,34,0.00,,---,0.00,VWS V14.01,2013-04-09 04:51:00,
2013-04-08 23:52:00,64.0,35.1,28.32,SSE,167,0.0,0.0,34,0.00,,---,0.00,VWS V14.01,2013-04-09 04:52:00,
2013-04-08 23:56:00,63.7,34.8,28.32,SSE,167,0.0,0.0,34,0.00,,---,0.00,VWS V14.01,2013-04-09 04:56:00,
2013-04-08 23:57:00,63.5,34.7,28.32,SSE,167,0.0,0.0,34,0.00,,---,0.00,VWS V14.01,2013-04-09 04:57:00,